<?xml version="1.0" encoding="UTF-8"?>
<gpx xmlns="http://www.topografix.com/GPX/1/1" version="1.1" xmlns:xsi="http://www.w3.org/2001/XMLSchema-instance" xsi:schemaLocation="http://www.topografix.com/GPX/1/1 http://www.topografix.com/GPX/1/1/gpx.xsd" creator="MotionXGPSFull 24.4 Build 5112 R64">
<trk>
<name><![CDATA[Carlton Hike 將軍石]]></name>
<desc><![CDATA[Jul 7, 2018  8:44 am]]></desc>
<trkseg>
<trkpt lat="22.2813099" lon="114.2210836">
<ele>14.724</ele>
<time>2018-07-07T00:44:14.999Z</time>
</trkpt>
<trkpt lat="22.2813099" lon="114.2210836">
<ele>14.724</ele>
<time>2018-07-07T00:44:14.999Z</time>
</trkpt>
<trkpt lat="22.2813573" lon="114.2210009">
<ele>15.368</ele>
<time>2018-07-07T00:44:25.926Z</time>
</trkpt>
<trkpt lat="22.2813573" lon="114.2210009">
<ele>15.368</ele>
<time>2018-07-07T00:44:25.926Z</time>
</trkpt>
<trkpt lat="22.2811092" lon="114.2207467">
<ele>14.521</ele>
<time>2018-07-07T00:45:24.442Z</time>
</trkpt>
<trkpt lat="22.2811092" lon="114.2207467">
<ele>14.521</ele>
<time>2018-07-07T00:45:24.442Z</time>
</trkpt>
<trkpt lat="22.2807077" lon="114.2199897">
<ele>46.251</ele>
<time>2018-07-07T00:47:49.720Z</time>
</trkpt>
<trkpt lat="22.2807747" lon="114.2198965">
<ele>46.230</ele>
<time>2018-07-07T00:48:03.992Z</time>
</trkpt>
<trkpt lat="22.2807747" lon="114.2198965">
<ele>46.222</ele>
<time>2018-07-07T00:48:10.992Z</time>
</trkpt>
<trkpt lat="22.2807747" lon="114.2198965">
<ele>46.215</ele>
<time>2018-07-07T00:48:11.092Z</time>
</trkpt>
<trkpt lat="22.2807747" lon="114.2198965">
<ele>46.215</ele>
<time>2018-07-07T00:48:11.092Z</time>
</trkpt>
<trkpt lat="22.2802763" lon="114.2187729">
<ele>85.928</ele>
<time>2018-07-07T00:50:53.026Z</time>
</trkpt>
<trkpt lat="22.2803767" lon="114.2187442">
<ele>85.889</ele>
<time>2018-07-07T00:51:01.171Z</time>
</trkpt>
<trkpt lat="22.2804575" lon="114.2186920">
<ele>83.721</ele>
<time>2018-07-07T00:51:08.562Z</time>
</trkpt>
<trkpt lat="22.2805475" lon="114.2186855">
<ele>78.114</ele>
<time>2018-07-07T00:51:15.642Z</time>
</trkpt>
<trkpt lat="22.2807289" lon="114.2182327">
<ele>70.373</ele>
<time>2018-07-07T00:51:51.479Z</time>
</trkpt>
<trkpt lat="22.2806758" lon="114.2181537">
<ele>70.650</ele>
<time>2018-07-07T00:52:00.057Z</time>
</trkpt>
<trkpt lat="22.2805909" lon="114.2181071">
<ele>71.398</ele>
<time>2018-07-07T00:52:10.081Z</time>
</trkpt>
<trkpt lat="22.2805080" lon="114.2180452">
<ele>71.590</ele>
<time>2018-07-07T00:52:21.919Z</time>
</trkpt>
<trkpt lat="22.2804259" lon="114.2179986">
<ele>71.793</ele>
<time>2018-07-07T00:52:33.337Z</time>
</trkpt>
<trkpt lat="22.2803453" lon="114.2180528">
<ele>73.779</ele>
<time>2018-07-07T00:52:45.511Z</time>
</trkpt>
<trkpt lat="22.2802518" lon="114.2180095">
<ele>78.167</ele>
<time>2018-07-07T00:52:56.920Z</time>
</trkpt>
<trkpt lat="22.2801544" lon="114.2179891">
<ele>83.061</ele>
<time>2018-07-07T00:53:06.743Z</time>
</trkpt>
<trkpt lat="22.2800620" lon="114.2180016">
<ele>87.255</ele>
<time>2018-07-07T00:53:16.466Z</time>
</trkpt>
<trkpt lat="22.2799690" lon="114.2180393">
<ele>91.646</ele>
<time>2018-07-07T00:53:27.675Z</time>
</trkpt>
<trkpt lat="22.2798706" lon="114.2180615">
<ele>95.986</ele>
<time>2018-07-07T00:53:43.238Z</time>
</trkpt>
<trkpt lat="22.2797778" lon="114.2180952">
<ele>99.331</ele>
<time>2018-07-07T00:54:00.470Z</time>
</trkpt>
<trkpt lat="22.2796443" lon="114.2185810">
<ele>103.459</ele>
<time>2018-07-07T00:55:22.993Z</time>
</trkpt>
<trkpt lat="22.2800979" lon="114.2184635">
<ele>106.885</ele>
<time>2018-07-07T00:57:28.232Z</time>
</trkpt>
<trkpt lat="22.2801865" lon="114.2184323">
<ele>113.750</ele>
<time>2018-07-07T00:57:53.222Z</time>
</trkpt>
<trkpt lat="22.2802810" lon="114.2183751">
<ele>120.987</ele>
<time>2018-07-07T00:58:22.312Z</time>
</trkpt>
<trkpt lat="22.2803464" lon="114.2182968">
<ele>125.563</ele>
<time>2018-07-07T00:58:48.532Z</time>
</trkpt>
<trkpt lat="22.2804221" lon="114.2182201">
<ele>127.531</ele>
<time>2018-07-07T00:59:16.368Z</time>
</trkpt>
<trkpt lat="22.2804956" lon="114.2181611">
<ele>127.308</ele>
<time>2018-07-07T00:59:40.948Z</time>
</trkpt>
<trkpt lat="22.2805898" lon="114.2181390">
<ele>124.121</ele>
<time>2018-07-07T01:00:06.806Z</time>
</trkpt>
<trkpt lat="22.2806922" lon="114.2181342">
<ele>116.913</ele>
<time>2018-07-07T01:00:34.329Z</time>
</trkpt>
<trkpt lat="22.2807889" lon="114.2181333">
<ele>107.761</ele>
<time>2018-07-07T01:00:53.549Z</time>
</trkpt>
<trkpt lat="22.2808862" lon="114.2181230">
<ele>100.510</ele>
<time>2018-07-07T01:01:07.793Z</time>
</trkpt>
<trkpt lat="22.2809747" lon="114.2181614">
<ele>96.692</ele>
<time>2018-07-07T01:01:15.478Z</time>
</trkpt>
<trkpt lat="22.2810499" lon="114.2182189">
<ele>94.853</ele>
<time>2018-07-07T01:01:24.069Z</time>
</trkpt>
<trkpt lat="22.2811399" lon="114.2182584">
<ele>93.125</ele>
<time>2018-07-07T01:01:35.745Z</time>
</trkpt>
<trkpt lat="22.2811839" lon="114.2183515">
<ele>91.345</ele>
<time>2018-07-07T01:01:47.081Z</time>
</trkpt>
<trkpt lat="22.2812460" lon="114.2184259">
<ele>90.024</ele>
<time>2018-07-07T01:01:57.140Z</time>
</trkpt>
<trkpt lat="22.2813334" lon="114.2184569">
<ele>89.156</ele>
<time>2018-07-07T01:02:08.117Z</time>
</trkpt>
<trkpt lat="22.2814261" lon="114.2184860">
<ele>88.692</ele>
<time>2018-07-07T01:02:23.088Z</time>
</trkpt>
<trkpt lat="22.2815079" lon="114.2185600">
<ele>88.579</ele>
<time>2018-07-07T01:02:36.397Z</time>
</trkpt>
<trkpt lat="22.2815958" lon="114.2185880">
<ele>88.653</ele>
<time>2018-07-07T01:02:48.893Z</time>
</trkpt>
<trkpt lat="22.2816528" lon="114.2185086">
<ele>88.793</ele>
<time>2018-07-07T01:03:01.742Z</time>
</trkpt>
<trkpt lat="22.2817058" lon="114.2184173">
<ele>88.965</ele>
<time>2018-07-07T01:03:17.717Z</time>
</trkpt>
<trkpt lat="22.2816911" lon="114.2183160">
<ele>89.167</ele>
<time>2018-07-07T01:03:31.319Z</time>
</trkpt>
<trkpt lat="22.2815949" lon="114.2183019">
<ele>89.321</ele>
<time>2018-07-07T01:03:44.942Z</time>
</trkpt>
<trkpt lat="22.2815334" lon="114.2182192">
<ele>89.211</ele>
<time>2018-07-07T01:04:01.991Z</time>
</trkpt>
<trkpt lat="22.2815334" lon="114.2182192">
<ele>88.792</ele>
<time>2018-07-07T01:04:05.991Z</time>
</trkpt>
<trkpt lat="22.2815334" lon="114.2182192">
<ele>88.423</ele>
<time>2018-07-07T01:04:06.091Z</time>
</trkpt>
<trkpt lat="22.2814936" lon="114.2180721">
<ele>88.392</ele>
<time>2018-07-07T01:04:20.691Z</time>
</trkpt>
<trkpt lat="22.2815840" lon="114.2180698">
<ele>88.316</ele>
<time>2018-07-07T01:04:28.990Z</time>
</trkpt>
<trkpt lat="22.2815840" lon="114.2180698">
<ele>87.849</ele>
<time>2018-07-07T01:04:28.990Z</time>
</trkpt>
<trkpt lat="22.2815840" lon="114.2180698">
<ele>87.390</ele>
<time>2018-07-07T01:05:02.625Z</time>
</trkpt>
<trkpt lat="22.2815380" lon="114.2181648">
<ele>87.554</ele>
<time>2018-07-07T01:05:31.235Z</time>
</trkpt>
<trkpt lat="22.2814440" lon="114.2181318">
<ele>87.497</ele>
<time>2018-07-07T01:05:39.414Z</time>
</trkpt>
<trkpt lat="22.2813516" lon="114.2181269">
<ele>86.995</ele>
<time>2018-07-07T01:05:46.067Z</time>
</trkpt>
<trkpt lat="22.2812706" lon="114.2180666">
<ele>86.484</ele>
<time>2018-07-07T01:05:52.414Z</time>
</trkpt>
<trkpt lat="22.2811950" lon="114.2180033">
<ele>86.414</ele>
<time>2018-07-07T01:05:58.882Z</time>
</trkpt>
<trkpt lat="22.2811308" lon="114.2179352">
<ele>86.700</ele>
<time>2018-07-07T01:06:05.950Z</time>
</trkpt>
<trkpt lat="22.2810939" lon="114.2178416">
<ele>87.073</ele>
<time>2018-07-07T01:06:16.735Z</time>
</trkpt>
<trkpt lat="22.2810642" lon="114.2177425">
<ele>87.507</ele>
<time>2018-07-07T01:06:27.345Z</time>
</trkpt>
<trkpt lat="22.2810555" lon="114.2176340">
<ele>88.089</ele>
<time>2018-07-07T01:06:38.345Z</time>
</trkpt>
<trkpt lat="22.2810543" lon="114.2175337">
<ele>88.679</ele>
<time>2018-07-07T01:06:49.468Z</time>
</trkpt>
<trkpt lat="22.2810451" lon="114.2174329">
<ele>89.145</ele>
<time>2018-07-07T01:06:58.337Z</time>
</trkpt>
<trkpt lat="22.2809908" lon="114.2173347">
<ele>89.533</ele>
<time>2018-07-07T01:07:05.637Z</time>
</trkpt>
<trkpt lat="22.2809702" lon="114.2172206">
<ele>89.785</ele>
<time>2018-07-07T01:07:12.979Z</time>
</trkpt>
<trkpt lat="22.2808886" lon="114.2171672">
<ele>89.907</ele>
<time>2018-07-07T01:07:21.363Z</time>
</trkpt>
<trkpt lat="22.2807924" lon="114.2171744">
<ele>90.237</ele>
<time>2018-07-07T01:07:30.102Z</time>
</trkpt>
<trkpt lat="22.2806923" lon="114.2171676">
<ele>91.125</ele>
<time>2018-07-07T01:07:40.818Z</time>
</trkpt>
<trkpt lat="22.2806000" lon="114.2171732">
<ele>92.463</ele>
<time>2018-07-07T01:07:52.076Z</time>
</trkpt>
<trkpt lat="22.2805585" lon="114.2170863">
<ele>94.290</ele>
<time>2018-07-07T01:08:09.299Z</time>
</trkpt>
<trkpt lat="22.2804837" lon="114.2170267">
<ele>96.921</ele>
<time>2018-07-07T01:08:23.728Z</time>
</trkpt>
<trkpt lat="22.2804115" lon="114.2169646">
<ele>99.743</ele>
<time>2018-07-07T01:08:33.876Z</time>
</trkpt>
<trkpt lat="22.2803265" lon="114.2169289">
<ele>101.696</ele>
<time>2018-07-07T01:08:42.994Z</time>
</trkpt>
<trkpt lat="22.2803265" lon="114.2169289">
<ele>102.490</ele>
<time>2018-07-07T01:08:46.994Z</time>
</trkpt>
<trkpt lat="22.2803265" lon="114.2169289">
<ele>102.510</ele>
<time>2018-07-07T01:09:12.599Z</time>
</trkpt>
<trkpt lat="22.2802216" lon="114.2169112">
<ele>102.344</ele>
<time>2018-07-07T01:10:36.425Z</time>
</trkpt>
<trkpt lat="22.2801275" lon="114.2169390">
<ele>104.598</ele>
<time>2018-07-07T01:10:47.066Z</time>
</trkpt>
<trkpt lat="22.2800314" lon="114.2168874">
<ele>110.579</ele>
<time>2018-07-07T01:10:56.252Z</time>
</trkpt>
<trkpt lat="22.2799393" lon="114.2169113">
<ele>116.644</ele>
<time>2018-07-07T01:11:05.665Z</time>
</trkpt>
<trkpt lat="22.2798556" lon="114.2169484">
<ele>119.357</ele>
<time>2018-07-07T01:11:15.164Z</time>
</trkpt>
<trkpt lat="22.2797649" lon="114.2169287">
<ele>119.934</ele>
<time>2018-07-07T01:11:24.949Z</time>
</trkpt>
<trkpt lat="22.2796738" lon="114.2169165">
<ele>120.354</ele>
<time>2018-07-07T01:11:34.298Z</time>
</trkpt>
<trkpt lat="22.2795805" lon="114.2169111">
<ele>121.108</ele>
<time>2018-07-07T01:11:43.990Z</time>
</trkpt>
<trkpt lat="22.2795805" lon="114.2169111">
<ele>121.729</ele>
<time>2018-07-07T01:11:46.990Z</time>
</trkpt>
<trkpt lat="22.2795805" lon="114.2169111">
<ele>121.960</ele>
<time>2018-07-07T01:19:07.043Z</time>
</trkpt>
<trkpt lat="22.2796728" lon="114.2169072">
<ele>121.697</ele>
<time>2018-07-07T01:19:29.995Z</time>
</trkpt>
<trkpt lat="22.2797692" lon="114.2169205">
<ele>122.734</ele>
<time>2018-07-07T01:19:37.969Z</time>
</trkpt>
<trkpt lat="22.2798608" lon="114.2169081">
<ele>125.872</ele>
<time>2018-07-07T01:19:45.237Z</time>
</trkpt>
<trkpt lat="22.2799558" lon="114.2169337">
<ele>129.428</ele>
<time>2018-07-07T01:19:52.993Z</time>
</trkpt>
<trkpt lat="22.2800465" lon="114.2169373">
<ele>131.249</ele>
<time>2018-07-07T01:19:59.727Z</time>
</trkpt>
<trkpt lat="22.2801397" lon="114.2169375">
<ele>130.336</ele>
<time>2018-07-07T01:20:05.956Z</time>
</trkpt>
<trkpt lat="22.2802305" lon="114.2169550">
<ele>126.636</ele>
<time>2018-07-07T01:20:11.999Z</time>
</trkpt>
<trkpt lat="22.2802305" lon="114.2169550">
<ele>122.185</ele>
<time>2018-07-07T01:20:18.999Z</time>
</trkpt>
<trkpt lat="22.2802305" lon="114.2169550">
<ele>119.766</ele>
<time>2018-07-07T01:20:49.313Z</time>
</trkpt>
<trkpt lat="22.2801489" lon="114.2168972">
<ele>121.091</ele>
<time>2018-07-07T01:21:02.572Z</time>
</trkpt>
<trkpt lat="22.2800711" lon="114.2168288">
<ele>121.109</ele>
<time>2018-07-07T01:21:10.212Z</time>
</trkpt>
<trkpt lat="22.2800206" lon="114.2167483">
<ele>119.246</ele>
<time>2018-07-07T01:21:16.429Z</time>
</trkpt>
<trkpt lat="22.2799457" lon="114.2166885">
<ele>117.005</ele>
<time>2018-07-07T01:21:23.699Z</time>
</trkpt>
<trkpt lat="22.2799526" lon="114.2165909">
<ele>116.096</ele>
<time>2018-07-07T01:21:32.039Z</time>
</trkpt>
<trkpt lat="22.2799340" lon="114.2164924">
<ele>116.558</ele>
<time>2018-07-07T01:21:42.606Z</time>
</trkpt>
<trkpt lat="22.2798806" lon="114.2164114">
<ele>117.671</ele>
<time>2018-07-07T01:21:54.024Z</time>
</trkpt>
<trkpt lat="22.2797905" lon="114.2163752">
<ele>118.779</ele>
<time>2018-07-07T01:22:07.618Z</time>
</trkpt>
<trkpt lat="22.2797060" lon="114.2163415">
<ele>119.603</ele>
<time>2018-07-07T01:22:21.996Z</time>
</trkpt>
<trkpt lat="22.2797060" lon="114.2163415">
<ele>120.064</ele>
<time>2018-07-07T01:22:33.995Z</time>
</trkpt>
<trkpt lat="22.2797060" lon="114.2163415">
<ele>120.204</ele>
<time>2018-07-07T01:23:20.575Z</time>
</trkpt>
<trkpt lat="22.2796816" lon="114.2162150">
<ele>120.124</ele>
<time>2018-07-07T01:24:19.993Z</time>
</trkpt>
<trkpt lat="22.2796816" lon="114.2162150">
<ele>120.004</ele>
<time>2018-07-07T01:24:22.993Z</time>
</trkpt>
<trkpt lat="22.2796816" lon="114.2162150">
<ele>119.952</ele>
<time>2018-07-07T01:25:28.991Z</time>
</trkpt>
<trkpt lat="22.2796816" lon="114.2162150">
<ele>119.939</ele>
<time>2018-07-07T01:27:01.998Z</time>
</trkpt>
<trkpt lat="22.2796816" lon="114.2162150">
<ele>119.906</ele>
<time>2018-07-07T01:28:10.812Z</time>
</trkpt>
<trkpt lat="22.2796816" lon="114.2162150">
<ele>119.812</ele>
<time>2018-07-07T01:28:33.997Z</time>
</trkpt>
<trkpt lat="22.2796816" lon="114.2162150">
<ele>119.782</ele>
<time>2018-07-07T01:28:34.097Z</time>
</trkpt>
<trkpt lat="22.2795589" lon="114.2161621">
<ele>119.750</ele>
<time>2018-07-07T01:28:54.069Z</time>
</trkpt>
<trkpt lat="22.2794703" lon="114.2161421">
<ele>121.620</ele>
<time>2018-07-07T01:29:03.884Z</time>
</trkpt>
<trkpt lat="22.2793773" lon="114.2161627">
<ele>126.986</ele>
<time>2018-07-07T01:29:15.391Z</time>
</trkpt>
<trkpt lat="22.2792948" lon="114.2161221">
<ele>133.233</ele>
<time>2018-07-07T01:29:27.460Z</time>
</trkpt>
<trkpt lat="22.2792090" lon="114.2161692">
<ele>137.499</ele>
<time>2018-07-07T01:29:38.126Z</time>
</trkpt>
<trkpt lat="22.2791817" lon="114.2162709">
<ele>140.253</ele>
<time>2018-07-07T01:29:45.595Z</time>
</trkpt>
<trkpt lat="22.2790804" lon="114.2162891">
<ele>142.113</ele>
<time>2018-07-07T01:29:52.463Z</time>
</trkpt>
<trkpt lat="22.2789952" lon="114.2162493">
<ele>143.340</ele>
<time>2018-07-07T01:29:59.101Z</time>
</trkpt>
<trkpt lat="22.2789118" lon="114.2163118">
<ele>144.496</ele>
<time>2018-07-07T01:30:07.350Z</time>
</trkpt>
<trkpt lat="22.2788126" lon="114.2162989">
<ele>145.700</ele>
<time>2018-07-07T01:30:15.995Z</time>
</trkpt>
<trkpt lat="22.2788126" lon="114.2162989">
<ele>146.657</ele>
<time>2018-07-07T01:30:24.994Z</time>
</trkpt>
<trkpt lat="22.2788126" lon="114.2162989">
<ele>147.087</ele>
<time>2018-07-07T01:30:25.094Z</time>
</trkpt>
<trkpt lat="22.2787090" lon="114.2163841">
<ele>146.977</ele>
<time>2018-07-07T01:31:49.561Z</time>
</trkpt>
<trkpt lat="22.2786217" lon="114.2164265">
<ele>147.351</ele>
<time>2018-07-07T01:32:00.300Z</time>
</trkpt>
<trkpt lat="22.2785365" lon="114.2164626">
<ele>149.017</ele>
<time>2018-07-07T01:32:10.470Z</time>
</trkpt>
<trkpt lat="22.2784542" lon="114.2165105">
<ele>151.327</ele>
<time>2018-07-07T01:32:20.991Z</time>
</trkpt>
<trkpt lat="22.2784542" lon="114.2165105">
<ele>153.222</ele>
<time>2018-07-07T01:32:25.991Z</time>
</trkpt>
<trkpt lat="22.2784542" lon="114.2165105">
<ele>154.110</ele>
<time>2018-07-07T01:32:26.166Z</time>
</trkpt>
<trkpt lat="22.2783673" lon="114.2165508">
<ele>153.951</ele>
<time>2018-07-07T01:32:37.991Z</time>
</trkpt>
<trkpt lat="22.2783673" lon="114.2165508">
<ele>153.524</ele>
<time>2018-07-07T01:32:43.991Z</time>
</trkpt>
<trkpt lat="22.2783673" lon="114.2165508">
<ele>153.435</ele>
<time>2018-07-07T01:33:58.818Z</time>
</trkpt>
<trkpt lat="22.2782816" lon="114.2165902">
<ele>153.520</ele>
<time>2018-07-07T01:34:22.284Z</time>
</trkpt>
<trkpt lat="22.2782555" lon="114.2166857">
<ele>154.509</ele>
<time>2018-07-07T01:34:30.759Z</time>
</trkpt>
<trkpt lat="22.2782080" lon="114.2167813">
<ele>157.366</ele>
<time>2018-07-07T01:34:38.414Z</time>
</trkpt>
<trkpt lat="22.2781321" lon="114.2168508">
<ele>160.829</ele>
<time>2018-07-07T01:34:45.227Z</time>
</trkpt>
<trkpt lat="22.2780392" lon="114.2168774">
<ele>163.650</ele>
<time>2018-07-07T01:34:53.567Z</time>
</trkpt>
<trkpt lat="22.2779454" lon="114.2169144">
<ele>166.007</ele>
<time>2018-07-07T01:35:03.623Z</time>
</trkpt>
<trkpt lat="22.2778532" lon="114.2169184">
<ele>167.936</ele>
<time>2018-07-07T01:35:15.495Z</time>
</trkpt>
<trkpt lat="22.2777789" lon="114.2169760">
<ele>169.409</ele>
<time>2018-07-07T01:35:24.998Z</time>
</trkpt>
<trkpt lat="22.2777789" lon="114.2169760">
<ele>170.486</ele>
<time>2018-07-07T01:35:25.998Z</time>
</trkpt>
<trkpt lat="22.2777789" lon="114.2169760">
<ele>170.997</ele>
<time>2018-07-07T01:36:12.443Z</time>
</trkpt>
<trkpt lat="22.2776855" lon="114.2170169">
<ele>170.528</ele>
<time>2018-07-07T01:36:45.726Z</time>
</trkpt>
<trkpt lat="22.2775926" lon="114.2170319">
<ele>171.217</ele>
<time>2018-07-07T01:36:56.780Z</time>
</trkpt>
<trkpt lat="22.2775585" lon="114.2171221">
<ele>173.595</ele>
<time>2018-07-07T01:37:08.628Z</time>
</trkpt>
<trkpt lat="22.2774974" lon="114.2171973">
<ele>176.221</ele>
<time>2018-07-07T01:37:20.970Z</time>
</trkpt>
<trkpt lat="22.2774301" lon="114.2172687">
<ele>178.138</ele>
<time>2018-07-07T01:37:34.184Z</time>
</trkpt>
<trkpt lat="22.2773485" lon="114.2173240">
<ele>180.334</ele>
<time>2018-07-07T01:37:48.648Z</time>
</trkpt>
<trkpt lat="22.2772741" lon="114.2173939">
<ele>183.078</ele>
<time>2018-07-07T01:38:03.317Z</time>
</trkpt>
<trkpt lat="22.2771730" lon="114.2173962">
<ele>185.861</ele>
<time>2018-07-07T01:38:13.624Z</time>
</trkpt>
<trkpt lat="22.2771010" lon="114.2174631">
<ele>188.385</ele>
<time>2018-07-07T01:38:22.517Z</time>
</trkpt>
<trkpt lat="22.2770316" lon="114.2175437">
<ele>190.290</ele>
<time>2018-07-07T01:38:31.765Z</time>
</trkpt>
<trkpt lat="22.2769644" lon="114.2176297">
<ele>191.560</ele>
<time>2018-07-07T01:38:40.080Z</time>
</trkpt>
<trkpt lat="22.2768857" lon="114.2176789">
<ele>192.623</ele>
<time>2018-07-07T01:38:47.838Z</time>
</trkpt>
<trkpt lat="22.2768188" lon="114.2177519">
<ele>193.622</ele>
<time>2018-07-07T01:38:58.131Z</time>
</trkpt>
<trkpt lat="22.2767564" lon="114.2178246">
<ele>194.477</ele>
<time>2018-07-07T01:39:08.992Z</time>
</trkpt>
<trkpt lat="22.2767564" lon="114.2178246">
<ele>195.007</ele>
<time>2018-07-07T01:39:21.992Z</time>
</trkpt>
<trkpt lat="22.2767564" lon="114.2178246">
<ele>195.117</ele>
<time>2018-07-07T01:39:35.291Z</time>
</trkpt>
<trkpt lat="22.2766192" lon="114.2178446">
<ele>194.984</ele>
<time>2018-07-07T01:39:42.991Z</time>
</trkpt>
<trkpt lat="22.2766192" lon="114.2178446">
<ele>194.839</ele>
<time>2018-07-07T01:39:43.991Z</time>
</trkpt>
<trkpt lat="22.2766192" lon="114.2178446">
<ele>194.765</ele>
<time>2018-07-07T01:39:56.494Z</time>
</trkpt>
<trkpt lat="22.2767457" lon="114.2179022">
<ele>194.744</ele>
<time>2018-07-07T01:40:16.263Z</time>
</trkpt>
<trkpt lat="22.2768149" lon="114.2179685">
<ele>196.651</ele>
<time>2018-07-07T01:40:22.990Z</time>
</trkpt>
<trkpt lat="22.2768149" lon="114.2179685">
<ele>201.620</ele>
<time>2018-07-07T01:40:26.990Z</time>
</trkpt>
<trkpt lat="22.2768149" lon="114.2179685">
<ele>205.730</ele>
<time>2018-07-07T01:41:20.092Z</time>
</trkpt>
<trkpt lat="22.2767828" lon="114.2180884">
<ele>203.299</ele>
<time>2018-07-07T01:41:37.836Z</time>
</trkpt>
<trkpt lat="22.2767954" lon="114.2182078">
<ele>203.071</ele>
<time>2018-07-07T01:41:46.327Z</time>
</trkpt>
<trkpt lat="22.2767922" lon="114.2183064">
<ele>206.214</ele>
<time>2018-07-07T01:41:51.818Z</time>
</trkpt>
<trkpt lat="22.2767658" lon="114.2184129">
<ele>209.955</ele>
<time>2018-07-07T01:41:59.346Z</time>
</trkpt>
<trkpt lat="22.2767324" lon="114.2185062">
<ele>211.609</ele>
<time>2018-07-07T01:42:06.845Z</time>
</trkpt>
<trkpt lat="22.2767052" lon="114.2186071">
<ele>211.603</ele>
<time>2018-07-07T01:42:13.900Z</time>
</trkpt>
<trkpt lat="22.2766364" lon="114.2186975">
<ele>211.163</ele>
<time>2018-07-07T01:42:21.871Z</time>
</trkpt>
<trkpt lat="22.2767211" lon="114.2187304">
<ele>211.128</ele>
<time>2018-07-07T01:42:28.866Z</time>
</trkpt>
<trkpt lat="22.2768176" lon="114.2187531">
<ele>211.607</ele>
<time>2018-07-07T01:42:34.131Z</time>
</trkpt>
<trkpt lat="22.2769068" lon="114.2187917">
<ele>212.048</ele>
<time>2018-07-07T01:42:39.328Z</time>
</trkpt>
<trkpt lat="22.2769658" lon="114.2188708">
<ele>211.911</ele>
<time>2018-07-07T01:42:44.763Z</time>
</trkpt>
<trkpt lat="22.2769508" lon="114.2189823">
<ele>211.175</ele>
<time>2018-07-07T01:42:51.145Z</time>
</trkpt>
<trkpt lat="22.2768953" lon="114.2190599">
<ele>210.274</ele>
<time>2018-07-07T01:42:56.827Z</time>
</trkpt>
<trkpt lat="22.2768286" lon="114.2191328">
<ele>209.874</ele>
<time>2018-07-07T01:43:02.997Z</time>
</trkpt>
<trkpt lat="22.2768286" lon="114.2191328">
<ele>210.187</ele>
<time>2018-07-07T01:43:14.997Z</time>
</trkpt>
<trkpt lat="22.2768286" lon="114.2191328">
<ele>210.578</ele>
<time>2018-07-07T01:43:15.097Z</time>
</trkpt>
<trkpt lat="22.2769208" lon="114.2192954">
<ele>210.503</ele>
<time>2018-07-07T01:43:32.573Z</time>
</trkpt>
<trkpt lat="22.2769501" lon="114.2193930">
<ele>210.184</ele>
<time>2018-07-07T01:43:39.555Z</time>
</trkpt>
<trkpt lat="22.2768627" lon="114.2194184">
<ele>210.017</ele>
<time>2018-07-07T01:43:46.483Z</time>
</trkpt>
<trkpt lat="22.2768298" lon="114.2195117">
<ele>210.076</ele>
<time>2018-07-07T01:43:53.311Z</time>
</trkpt>
<trkpt lat="22.2768177" lon="114.2196126">
<ele>210.245</ele>
<time>2018-07-07T01:44:00.028Z</time>
</trkpt>
<trkpt lat="22.2768255" lon="114.2197132">
<ele>210.406</ele>
<time>2018-07-07T01:44:06.958Z</time>
</trkpt>
<trkpt lat="22.2767396" lon="114.2197476">
<ele>210.376</ele>
<time>2018-07-07T01:44:14.167Z</time>
</trkpt>
<trkpt lat="22.2766531" lon="114.2197932">
<ele>210.069</ele>
<time>2018-07-07T01:44:21.995Z</time>
</trkpt>
<trkpt lat="22.2766531" lon="114.2197932">
<ele>209.749</ele>
<time>2018-07-07T01:44:29.995Z</time>
</trkpt>
<trkpt lat="22.2766531" lon="114.2197932">
<ele>209.653</ele>
<time>2018-07-07T01:44:30.095Z</time>
</trkpt>
<trkpt lat="22.2765419" lon="114.2198213">
<ele>209.662</ele>
<time>2018-07-07T01:44:43.866Z</time>
</trkpt>
<trkpt lat="22.2764626" lon="114.2197644">
<ele>209.622</ele>
<time>2018-07-07T01:44:50.748Z</time>
</trkpt>
<trkpt lat="22.2764208" lon="114.2196776">
<ele>209.640</ele>
<time>2018-07-07T01:44:57.257Z</time>
</trkpt>
<trkpt lat="22.2763227" lon="114.2197038">
<ele>209.832</ele>
<time>2018-07-07T01:45:04.937Z</time>
</trkpt>
<trkpt lat="22.2762430" lon="114.2197627">
<ele>210.061</ele>
<time>2018-07-07T01:45:11.881Z</time>
</trkpt>
<trkpt lat="22.2761917" lon="114.2198453">
<ele>210.184</ele>
<time>2018-07-07T01:45:18.353Z</time>
</trkpt>
<trkpt lat="22.2761637" lon="114.2199459">
<ele>210.268</ele>
<time>2018-07-07T01:45:25.336Z</time>
</trkpt>
<trkpt lat="22.2761281" lon="114.2200385">
<ele>210.341</ele>
<time>2018-07-07T01:45:32.625Z</time>
</trkpt>
<trkpt lat="22.2760579" lon="114.2201041">
<ele>210.282</ele>
<time>2018-07-07T01:45:40.993Z</time>
</trkpt>
<trkpt lat="22.2760579" lon="114.2201041">
<ele>210.076</ele>
<time>2018-07-07T01:45:49.993Z</time>
</trkpt>
<trkpt lat="22.2760579" lon="114.2201041">
<ele>209.887</ele>
<time>2018-07-07T01:45:54.372Z</time>
</trkpt>
<trkpt lat="22.2759139" lon="114.2201611">
<ele>209.833</ele>
<time>2018-07-07T01:46:10.877Z</time>
</trkpt>
<trkpt lat="22.2758200" lon="114.2201751">
<ele>209.914</ele>
<time>2018-07-07T01:46:17.810Z</time>
</trkpt>
<trkpt lat="22.2757323" lon="114.2201450">
<ele>210.295</ele>
<time>2018-07-07T01:46:25.059Z</time>
</trkpt>
<trkpt lat="22.2756541" lon="114.2201998">
<ele>211.188</ele>
<time>2018-07-07T01:46:32.992Z</time>
</trkpt>
<trkpt lat="22.2756541" lon="114.2201998">
<ele>212.291</ele>
<time>2018-07-07T01:46:40.992Z</time>
</trkpt>
<trkpt lat="22.2756541" lon="114.2201998">
<ele>212.881</ele>
<time>2018-07-07T01:46:41.968Z</time>
</trkpt>
<trkpt lat="22.2757491" lon="114.2202999">
<ele>212.595</ele>
<time>2018-07-07T01:47:02.057Z</time>
</trkpt>
<trkpt lat="22.2757638" lon="114.2203989">
<ele>211.710</ele>
<time>2018-07-07T01:47:09.430Z</time>
</trkpt>
<trkpt lat="22.2757314" lon="114.2204971">
<ele>210.531</ele>
<time>2018-07-07T01:47:15.796Z</time>
</trkpt>
<trkpt lat="22.2756903" lon="114.2205867">
<ele>209.112</ele>
<time>2018-07-07T01:47:21.445Z</time>
</trkpt>
<trkpt lat="22.2756027" lon="114.2206287">
<ele>207.637</ele>
<time>2018-07-07T01:47:27.506Z</time>
</trkpt>
<trkpt lat="22.2755085" lon="114.2206590">
<ele>206.479</ele>
<time>2018-07-07T01:47:33.991Z</time>
</trkpt>
<trkpt lat="22.2755085" lon="114.2206590">
<ele>205.896</ele>
<time>2018-07-07T01:47:37.991Z</time>
</trkpt>
<trkpt lat="22.2755085" lon="114.2206590">
<ele>205.842</ele>
<time>2018-07-07T01:47:38.091Z</time>
</trkpt>
<trkpt lat="22.2754098" lon="114.2206214">
<ele>205.879</ele>
<time>2018-07-07T01:47:55.990Z</time>
</trkpt>
<trkpt lat="22.2754098" lon="114.2206214">
<ele>205.748</ele>
<time>2018-07-07T01:48:04.990Z</time>
</trkpt>
<trkpt lat="22.2754098" lon="114.2206214">
<ele>205.661</ele>
<time>2018-07-07T01:48:05.090Z</time>
</trkpt>
<trkpt lat="22.2752857" lon="114.2205844">
<ele>205.628</ele>
<time>2018-07-07T01:48:18.648Z</time>
</trkpt>
<trkpt lat="22.2752029" lon="114.2206233">
<ele>206.184</ele>
<time>2018-07-07T01:48:24.174Z</time>
</trkpt>
<trkpt lat="22.2750992" lon="114.2206300">
<ele>209.143</ele>
<time>2018-07-07T01:48:31.380Z</time>
</trkpt>
<trkpt lat="22.2750342" lon="114.2205619">
<ele>209.877</ele>
<time>2018-07-07T01:48:38.316Z</time>
</trkpt>
<trkpt lat="22.2749902" lon="114.2204655">
<ele>210.065</ele>
<time>2018-07-07T01:48:47.999Z</time>
</trkpt>
<trkpt lat="22.2749902" lon="114.2204655">
<ele>210.058</ele>
<time>2018-07-07T01:48:52.999Z</time>
</trkpt>
<trkpt lat="22.2749902" lon="114.2204655">
<ele>209.996</ele>
<time>2018-07-07T01:48:56.985Z</time>
</trkpt>
<trkpt lat="22.2748523" lon="114.2204383">
<ele>209.909</ele>
<time>2018-07-07T01:49:17.441Z</time>
</trkpt>
<trkpt lat="22.2747895" lon="114.2205086">
<ele>210.251</ele>
<time>2018-07-07T01:49:23.938Z</time>
</trkpt>
<trkpt lat="22.2747168" lon="114.2205665">
<ele>211.297</ele>
<time>2018-07-07T01:49:30.558Z</time>
</trkpt>
<trkpt lat="22.2746229" lon="114.2205559">
<ele>212.333</ele>
<time>2018-07-07T01:49:38.127Z</time>
</trkpt>
<trkpt lat="22.2745344" lon="114.2206024">
<ele>212.691</ele>
<time>2018-07-07T01:49:45.998Z</time>
</trkpt>
<trkpt lat="22.2745344" lon="114.2206024">
<ele>212.616</ele>
<time>2018-07-07T01:49:47.998Z</time>
</trkpt>
<trkpt lat="22.2745344" lon="114.2206024">
<ele>212.488</ele>
<time>2018-07-07T01:51:37.144Z</time>
</trkpt>
<trkpt lat="22.2744372" lon="114.2205737">
<ele>212.384</ele>
<time>2018-07-07T01:53:44.275Z</time>
</trkpt>
<trkpt lat="22.2743400" lon="114.2205428">
<ele>213.143</ele>
<time>2018-07-07T01:53:53.363Z</time>
</trkpt>
<trkpt lat="22.2742461" lon="114.2205234">
<ele>215.162</ele>
<time>2018-07-07T01:54:00.622Z</time>
</trkpt>
<trkpt lat="22.2741604" lon="114.2205530">
<ele>217.213</ele>
<time>2018-07-07T01:54:07.991Z</time>
</trkpt>
<trkpt lat="22.2741604" lon="114.2205530">
<ele>218.023</ele>
<time>2018-07-07T01:54:18.991Z</time>
</trkpt>
<trkpt lat="22.2741604" lon="114.2205530">
<ele>217.822</ele>
<time>2018-07-07T01:54:26.427Z</time>
</trkpt>
<trkpt lat="22.2740224" lon="114.2206811">
<ele>217.326</ele>
<time>2018-07-07T01:54:48.990Z</time>
</trkpt>
<trkpt lat="22.2740224" lon="114.2206811">
<ele>217.014</ele>
<time>2018-07-07T01:54:48.990Z</time>
</trkpt>
<trkpt lat="22.2740224" lon="114.2206811">
<ele>216.899</ele>
<time>2018-07-07T01:54:55.780Z</time>
</trkpt>
<trkpt lat="22.2739407" lon="114.2207373">
<ele>216.838</ele>
<time>2018-07-07T01:55:32.217Z</time>
</trkpt>
<trkpt lat="22.2738912" lon="114.2208191">
<ele>216.617</ele>
<time>2018-07-07T01:56:11.177Z</time>
</trkpt>
<trkpt lat="22.2738895" lon="114.2209185">
<ele>216.166</ele>
<time>2018-07-07T01:56:50.756Z</time>
</trkpt>
<trkpt lat="22.2739583" lon="114.2209968">
<ele>216.007</ele>
<time>2018-07-07T01:57:33.740Z</time>
</trkpt>
<trkpt lat="22.2739165" lon="114.2208961">
<ele>216.537</ele>
<time>2018-07-07T01:57:58.996Z</time>
</trkpt>
<trkpt lat="22.2739165" lon="114.2208961">
<ele>217.079</ele>
<time>2018-07-07T01:58:17.996Z</time>
</trkpt>
<trkpt lat="22.2739165" lon="114.2208961">
<ele>216.995</ele>
<time>2018-07-07T01:58:27.246Z</time>
</trkpt>
<trkpt lat="22.2740165" lon="114.2208993">
<ele>216.587</ele>
<time>2018-07-07T01:58:42.881Z</time>
</trkpt>
<trkpt lat="22.2741177" lon="114.2209052">
<ele>216.218</ele>
<time>2018-07-07T01:58:51.112Z</time>
</trkpt>
<trkpt lat="22.2741762" lon="114.2209807">
<ele>214.904</ele>
<time>2018-07-07T01:58:56.557Z</time>
</trkpt>
<trkpt lat="22.2742034" lon="114.2210772">
<ele>213.210</ele>
<time>2018-07-07T01:59:01.928Z</time>
</trkpt>
<trkpt lat="22.2741623" lon="114.2211670">
<ele>212.138</ele>
<time>2018-07-07T01:59:07.634Z</time>
</trkpt>
<trkpt lat="22.2741135" lon="114.2212547">
<ele>211.834</ele>
<time>2018-07-07T01:59:13.994Z</time>
</trkpt>
<trkpt lat="22.2741135" lon="114.2212547">
<ele>211.843</ele>
<time>2018-07-07T01:59:16.994Z</time>
</trkpt>
<trkpt lat="22.2741135" lon="114.2212547">
<ele>211.790</ele>
<time>2018-07-07T01:59:18.970Z</time>
</trkpt>
<trkpt lat="22.2740567" lon="114.2213505">
<ele>211.597</ele>
<time>2018-07-07T01:59:32.240Z</time>
</trkpt>
<trkpt lat="22.2739779" lon="114.2214054">
<ele>211.476</ele>
<time>2018-07-07T01:59:38.618Z</time>
</trkpt>
<trkpt lat="22.2738994" lon="114.2214704">
<ele>211.203</ele>
<time>2018-07-07T01:59:45.972Z</time>
</trkpt>
<trkpt lat="22.2738412" lon="114.2215462">
<ele>210.876</ele>
<time>2018-07-07T01:59:53.280Z</time>
</trkpt>
<trkpt lat="22.2738760" lon="114.2216421">
<ele>210.644</ele>
<time>2018-07-07T02:00:06.052Z</time>
</trkpt>
<trkpt lat="22.2739177" lon="114.2217346">
<ele>210.537</ele>
<time>2018-07-07T02:00:20.927Z</time>
</trkpt>
<trkpt lat="22.2739085" lon="114.2218339">
<ele>210.209</ele>
<time>2018-07-07T02:00:36.081Z</time>
</trkpt>
<trkpt lat="22.2739121" lon="114.2219359">
<ele>209.355</ele>
<time>2018-07-07T02:00:48.992Z</time>
</trkpt>
<trkpt lat="22.2739121" lon="114.2219359">
<ele>208.383</ele>
<time>2018-07-07T02:00:52.992Z</time>
</trkpt>
<trkpt lat="22.2739121" lon="114.2219359">
<ele>207.872</ele>
<time>2018-07-07T02:00:53.092Z</time>
</trkpt>
<trkpt lat="22.2739521" lon="114.2220274">
<ele>207.988</ele>
<time>2018-07-07T02:01:30.966Z</time>
</trkpt>
<trkpt lat="22.2739951" lon="114.2221133">
<ele>208.114</ele>
<time>2018-07-07T02:01:40.659Z</time>
</trkpt>
<trkpt lat="22.2740212" lon="114.2222154">
<ele>208.102</ele>
<time>2018-07-07T02:01:49.798Z</time>
</trkpt>
<trkpt lat="22.2740334" lon="114.2223184">
<ele>207.773</ele>
<time>2018-07-07T02:01:58.879Z</time>
</trkpt>
<trkpt lat="22.2740596" lon="114.2224137">
<ele>207.074</ele>
<time>2018-07-07T02:02:07.547Z</time>
</trkpt>
<trkpt lat="22.2740710" lon="114.2225112">
<ele>206.391</ele>
<time>2018-07-07T02:02:16.613Z</time>
</trkpt>
<trkpt lat="22.2740908" lon="114.2226059">
<ele>206.115</ele>
<time>2018-07-07T02:02:25.990Z</time>
</trkpt>
<trkpt lat="22.2740908" lon="114.2226059">
<ele>206.164</ele>
<time>2018-07-07T02:02:34.996Z</time>
</trkpt>
<trkpt lat="22.2740908" lon="114.2226059">
<ele>206.219</ele>
<time>2018-07-07T02:02:35.096Z</time>
</trkpt>
<trkpt lat="22.2741998" lon="114.2226502">
<ele>206.131</ele>
<time>2018-07-07T02:03:18.999Z</time>
</trkpt>
<trkpt lat="22.2741998" lon="114.2226502">
<ele>205.980</ele>
<time>2018-07-07T02:03:19.999Z</time>
</trkpt>
<trkpt lat="22.2741998" lon="114.2226502">
<ele>205.868</ele>
<time>2018-07-07T02:04:06.715Z</time>
</trkpt>
<trkpt lat="22.2742956" lon="114.2226572">
<ele>205.790</ele>
<time>2018-07-07T02:04:18.997Z</time>
</trkpt>
<trkpt lat="22.2742956" lon="114.2226572">
<ele>205.717</ele>
<time>2018-07-07T02:04:24.997Z</time>
</trkpt>
<trkpt lat="22.2742956" lon="114.2226572">
<ele>205.625</ele>
<time>2018-07-07T02:04:25.097Z</time>
</trkpt>
<trkpt lat="22.2743925" lon="114.2227575">
<ele>205.531</ele>
<time>2018-07-07T02:04:32.997Z</time>
</trkpt>
<trkpt lat="22.2743925" lon="114.2227575">
<ele>205.452</ele>
<time>2018-07-07T02:04:40.997Z</time>
</trkpt>
<trkpt lat="22.2743925" lon="114.2227575">
<ele>205.360</ele>
<time>2018-07-07T02:05:29.543Z</time>
</trkpt>
<trkpt lat="22.2743114" lon="114.2228029">
<ele>205.214</ele>
<time>2018-07-07T02:07:01.994Z</time>
</trkpt>
<trkpt lat="22.2743114" lon="114.2228029">
<ele>205.199</ele>
<time>2018-07-07T02:07:03.994Z</time>
</trkpt>
<trkpt lat="22.2743114" lon="114.2228029">
<ele>205.171</ele>
<time>2018-07-07T02:07:22.441Z</time>
</trkpt>
<trkpt lat="22.2741277" lon="114.2227810">
<ele>205.093</ele>
<time>2018-07-07T02:07:57.377Z</time>
</trkpt>
<trkpt lat="22.2740367" lon="114.2227949">
<ele>206.245</ele>
<time>2018-07-07T02:08:11.803Z</time>
</trkpt>
<trkpt lat="22.2739508" lon="114.2227597">
<ele>209.859</ele>
<time>2018-07-07T02:08:33.992Z</time>
</trkpt>
<trkpt lat="22.2739508" lon="114.2227597">
<ele>214.290</ele>
<time>2018-07-07T02:08:49.991Z</time>
</trkpt>
<trkpt lat="22.2739508" lon="114.2227597">
<ele>216.611</ele>
<time>2018-07-07T02:09:08.280Z</time>
</trkpt>
<trkpt lat="22.2737889" lon="114.2226867">
<ele>216.321</ele>
<time>2018-07-07T02:09:31.990Z</time>
</trkpt>
<trkpt lat="22.2737889" lon="114.2226867">
<ele>215.305</ele>
<time>2018-07-07T02:09:44.996Z</time>
</trkpt>
<trkpt lat="22.2737889" lon="114.2226867">
<ele>215.144</ele>
<time>2018-07-07T02:09:45.096Z</time>
</trkpt>
<trkpt lat="22.2736935" lon="114.2226861">
<ele>215.593</ele>
<time>2018-07-07T02:09:52.998Z</time>
</trkpt>
<trkpt lat="22.2736935" lon="114.2226861">
<ele>215.875</ele>
<time>2018-07-07T02:09:59.998Z</time>
</trkpt>
<trkpt lat="22.2736935" lon="114.2226861">
<ele>215.813</ele>
<time>2018-07-07T02:10:00.098Z</time>
</trkpt>
<trkpt lat="22.2735777" lon="114.2226668">
<ele>215.657</ele>
<time>2018-07-07T02:10:35.999Z</time>
</trkpt>
<trkpt lat="22.2735777" lon="114.2226668">
<ele>215.596</ele>
<time>2018-07-07T02:10:53.998Z</time>
</trkpt>
<trkpt lat="22.2735777" lon="114.2226668">
<ele>215.565</ele>
<time>2018-07-07T02:16:03.466Z</time>
</trkpt>
<trkpt lat="22.2735777" lon="114.2226668">
<ele>215.405</ele>
<time>2018-07-07T02:17:07.989Z</time>
</trkpt>
<trkpt lat="22.2735777" lon="114.2226668">
<ele>215.335</ele>
<time>2018-07-07T02:17:08.089Z</time>
</trkpt>
<trkpt lat="22.2734610" lon="114.2226559">
<ele>215.282</ele>
<time>2018-07-07T02:17:15.996Z</time>
</trkpt>
<trkpt lat="22.2734610" lon="114.2226559">
<ele>215.236</ele>
<time>2018-07-07T02:17:25.997Z</time>
</trkpt>
<trkpt lat="22.2734610" lon="114.2226559">
<ele>215.176</ele>
<time>2018-07-07T02:18:11.998Z</time>
</trkpt>
<trkpt lat="22.2734610" lon="114.2226559">
<ele>215.094</ele>
<time>2018-07-07T02:18:36.670Z</time>
</trkpt>
<trkpt lat="22.2733558" lon="114.2226328">
<ele>214.953</ele>
<time>2018-07-07T02:18:47.998Z</time>
</trkpt>
<trkpt lat="22.2733558" lon="114.2226328">
<ele>214.923</ele>
<time>2018-07-07T02:18:50.998Z</time>
</trkpt>
<trkpt lat="22.2733558" lon="114.2226328">
<ele>214.886</ele>
<time>2018-07-07T02:19:42.996Z</time>
</trkpt>
<trkpt lat="22.2733558" lon="114.2226328">
<ele>214.806</ele>
<time>2018-07-07T02:19:44.769Z</time>
</trkpt>
<trkpt lat="22.2732424" lon="114.2225947">
<ele>214.652</ele>
<time>2018-07-07T02:20:01.395Z</time>
</trkpt>
<trkpt lat="22.2731494" lon="114.2225746">
<ele>220.088</ele>
<time>2018-07-07T02:20:09.447Z</time>
</trkpt>
<trkpt lat="22.2730586" lon="114.2225881">
<ele>234.721</ele>
<time>2018-07-07T02:20:15.996Z</time>
</trkpt>
<trkpt lat="22.2730586" lon="114.2225881">
<ele>250.400</ele>
<time>2018-07-07T02:20:25.995Z</time>
</trkpt>
<trkpt lat="22.2730586" lon="114.2225881">
<ele>257.468</ele>
<time>2018-07-07T02:20:41.995Z</time>
</trkpt>
<trkpt lat="22.2730586" lon="114.2225881">
<ele>256.526</ele>
<time>2018-07-07T02:21:01.995Z</time>
</trkpt>
<trkpt lat="22.2730586" lon="114.2225881">
<ele>253.686</ele>
<time>2018-07-07T02:21:15.994Z</time>
</trkpt>
<trkpt lat="22.2730586" lon="114.2225881">
<ele>253.387</ele>
<time>2018-07-07T02:28:16.331Z</time>
</trkpt>
<trkpt lat="22.2728830" lon="114.2224478">
<ele>254.817</ele>
<time>2018-07-07T02:28:38.995Z</time>
</trkpt>
<trkpt lat="22.2728830" lon="114.2224478">
<ele>255.742</ele>
<time>2018-07-07T02:28:59.995Z</time>
</trkpt>
<trkpt lat="22.2728830" lon="114.2224478">
<ele>255.721</ele>
<time>2018-07-07T02:29:52.155Z</time>
</trkpt>
<trkpt lat="22.2727604" lon="114.2224177">
<ele>255.441</ele>
<time>2018-07-07T02:34:02.998Z</time>
</trkpt>
<trkpt lat="22.2727604" lon="114.2224177">
<ele>255.365</ele>
<time>2018-07-07T02:34:04.998Z</time>
</trkpt>
<trkpt lat="22.2727604" lon="114.2224177">
<ele>255.346</ele>
<time>2018-07-07T02:35:12.020Z</time>
</trkpt>
<trkpt lat="22.2727645" lon="114.2222907">
<ele>255.276</ele>
<time>2018-07-07T02:35:24.996Z</time>
</trkpt>
<trkpt lat="22.2727645" lon="114.2222907">
<ele>255.177</ele>
<time>2018-07-07T02:35:32.996Z</time>
</trkpt>
<trkpt lat="22.2727645" lon="114.2222907">
<ele>255.091</ele>
<time>2018-07-07T02:35:40.173Z</time>
</trkpt>
<trkpt lat="22.2727041" lon="114.2223673">
<ele>255.021</ele>
<time>2018-07-07T02:35:48.995Z</time>
</trkpt>
<trkpt lat="22.2727041" lon="114.2223673">
<ele>254.967</ele>
<time>2018-07-07T02:35:50.995Z</time>
</trkpt>
<trkpt lat="22.2727041" lon="114.2223673">
<ele>254.899</ele>
<time>2018-07-07T02:35:51.095Z</time>
</trkpt>
<trkpt lat="22.2727860" lon="114.2223190">
<ele>254.714</ele>
<time>2018-07-07T02:36:06.995Z</time>
</trkpt>
<trkpt lat="22.2727860" lon="114.2223190">
<ele>254.667</ele>
<time>2018-07-07T02:36:16.995Z</time>
</trkpt>
<trkpt lat="22.2727860" lon="114.2223190">
<ele>254.622</ele>
<time>2018-07-07T02:36:58.994Z</time>
</trkpt>
<trkpt lat="22.2727860" lon="114.2223190">
<ele>254.531</ele>
<time>2018-07-07T02:39:16.390Z</time>
</trkpt>
<trkpt lat="22.2727596" lon="114.2224262">
<ele>254.427</ele>
<time>2018-07-07T02:41:47.997Z</time>
</trkpt>
<trkpt lat="22.2727596" lon="114.2224262">
<ele>254.306</ele>
<time>2018-07-07T02:41:57.997Z</time>
</trkpt>
<trkpt lat="22.2727596" lon="114.2224262">
<ele>254.217</ele>
<time>2018-07-07T02:41:58.097Z</time>
</trkpt>
<trkpt lat="22.2728839" lon="114.2224960">
<ele>254.122</ele>
<time>2018-07-07T02:43:35.996Z</time>
</trkpt>
<trkpt lat="22.2728839" lon="114.2224960">
<ele>254.060</ele>
<time>2018-07-07T02:43:48.995Z</time>
</trkpt>
<trkpt lat="22.2728839" lon="114.2224960">
<ele>254.000</ele>
<time>2018-07-07T02:44:32.292Z</time>
</trkpt>
<trkpt lat="22.2729832" lon="114.2225243">
<ele>253.918</ele>
<time>2018-07-07T02:44:48.994Z</time>
</trkpt>
<trkpt lat="22.2729832" lon="114.2225243">
<ele>253.839</ele>
<time>2018-07-07T02:44:48.994Z</time>
</trkpt>
<trkpt lat="22.2729832" lon="114.2225243">
<ele>253.767</ele>
<time>2018-07-07T02:44:51.259Z</time>
</trkpt>
<trkpt lat="22.2730506" lon="114.2226045">
<ele>253.595</ele>
<time>2018-07-07T02:45:06.993Z</time>
</trkpt>
<trkpt lat="22.2730506" lon="114.2226045">
<ele>253.545</ele>
<time>2018-07-07T02:45:06.993Z</time>
</trkpt>
<trkpt lat="22.2730506" lon="114.2226045">
<ele>253.498</ele>
<time>2018-07-07T02:45:18.993Z</time>
</trkpt>
<trkpt lat="22.2730506" lon="114.2226045">
<ele>253.408</ele>
<time>2018-07-07T02:47:06.991Z</time>
</trkpt>
<trkpt lat="22.2730506" lon="114.2226045">
<ele>253.300</ele>
<time>2018-07-07T02:47:07.091Z</time>
</trkpt>
<trkpt lat="22.2731528" lon="114.2226138">
<ele>253.149</ele>
<time>2018-07-07T02:47:58.999Z</time>
</trkpt>
<trkpt lat="22.2731528" lon="114.2226138">
<ele>253.113</ele>
<time>2018-07-07T02:47:58.999Z</time>
</trkpt>
<trkpt lat="22.2731528" lon="114.2226138">
<ele>253.069</ele>
<time>2018-07-07T02:48:23.998Z</time>
</trkpt>
<trkpt lat="22.2731528" lon="114.2226138">
<ele>252.974</ele>
<time>2018-07-07T02:48:32.407Z</time>
</trkpt>
<trkpt lat="22.2732604" lon="114.2226078">
<ele>252.871</ele>
<time>2018-07-07T02:48:44.998Z</time>
</trkpt>
<trkpt lat="22.2732604" lon="114.2226078">
<ele>252.810</ele>
<time>2018-07-07T02:48:54.998Z</time>
</trkpt>
<trkpt lat="22.2732604" lon="114.2226078">
<ele>252.754</ele>
<time>2018-07-07T02:49:19.999Z</time>
</trkpt>
<trkpt lat="22.2733886" lon="114.2226575">
<ele>252.665</ele>
<time>2018-07-07T02:49:37.803Z</time>
</trkpt>
<trkpt lat="22.2734696" lon="114.2226065">
<ele>252.573</ele>
<time>2018-07-07T02:49:44.996Z</time>
</trkpt>
<trkpt lat="22.2734696" lon="114.2226065">
<ele>252.486</ele>
<time>2018-07-07T02:49:45.996Z</time>
</trkpt>
<trkpt lat="22.2734696" lon="114.2226065">
<ele>252.374</ele>
<time>2018-07-07T02:49:51.654Z</time>
</trkpt>
<trkpt lat="22.2734696" lon="114.2226065">
<ele>252.192</ele>
<time>2018-07-07T02:50:00.996Z</time>
</trkpt>
<trkpt lat="22.2734696" lon="114.2226065">
<ele>252.144</ele>
<time>2018-07-07T02:50:15.996Z</time>
</trkpt>
<trkpt lat="22.2734696" lon="114.2226065">
<ele>252.059</ele>
<time>2018-07-07T02:50:16.096Z</time>
</trkpt>
<trkpt lat="22.2736509" lon="114.2226566">
<ele>251.954</ele>
<time>2018-07-07T02:50:24.995Z</time>
</trkpt>
<trkpt lat="22.2736509" lon="114.2226566">
<ele>251.851</ele>
<time>2018-07-07T02:50:32.995Z</time>
</trkpt>
<trkpt lat="22.2736509" lon="114.2226566">
<ele>251.734</ele>
<time>2018-07-07T02:50:42.995Z</time>
</trkpt>
<trkpt lat="22.2736509" lon="114.2226566">
<ele>251.623</ele>
<time>2018-07-07T02:50:43.095Z</time>
</trkpt>
<trkpt lat="22.2737210" lon="114.2227301">
<ele>251.483</ele>
<time>2018-07-07T02:51:14.994Z</time>
</trkpt>
<trkpt lat="22.2737210" lon="114.2227301">
<ele>251.411</ele>
<time>2018-07-07T02:51:20.994Z</time>
</trkpt>
<trkpt lat="22.2737210" lon="114.2227301">
<ele>251.299</ele>
<time>2018-07-07T02:51:21.094Z</time>
</trkpt>
<trkpt lat="22.2738469" lon="114.2227734">
<ele>251.183</ele>
<time>2018-07-07T02:51:55.336Z</time>
</trkpt>
<trkpt lat="22.2739354" lon="114.2227465">
<ele>248.927</ele>
<time>2018-07-07T02:51:59.993Z</time>
</trkpt>
<trkpt lat="22.2739354" lon="114.2227465">
<ele>243.206</ele>
<time>2018-07-07T02:52:05.993Z</time>
</trkpt>
<trkpt lat="22.2739354" lon="114.2227465">
<ele>238.414</ele>
<time>2018-07-07T02:52:37.406Z</time>
</trkpt>
<trkpt lat="22.2740847" lon="114.2227814">
<ele>238.397</ele>
<time>2018-07-07T02:53:00.579Z</time>
</trkpt>
<trkpt lat="22.2741773" lon="114.2227941">
<ele>238.075</ele>
<time>2018-07-07T02:53:09.992Z</time>
</trkpt>
<trkpt lat="22.2741773" lon="114.2227941">
<ele>232.779</ele>
<time>2018-07-07T02:53:13.992Z</time>
</trkpt>
<trkpt lat="22.2741773" lon="114.2227941">
<ele>227.447</ele>
<time>2018-07-07T02:53:26.717Z</time>
</trkpt>
<trkpt lat="22.2742666" lon="114.2228159">
<ele>227.337</ele>
<time>2018-07-07T02:53:38.774Z</time>
</trkpt>
<trkpt lat="22.2743555" lon="114.2227989">
<ele>227.475</ele>
<time>2018-07-07T02:53:47.991Z</time>
</trkpt>
<trkpt lat="22.2743555" lon="114.2227989">
<ele>223.111</ele>
<time>2018-07-07T02:53:55.991Z</time>
</trkpt>
<trkpt lat="22.2743555" lon="114.2227989">
<ele>221.437</ele>
<time>2018-07-07T02:56:05.240Z</time>
</trkpt>
<trkpt lat="22.2742910" lon="114.2228800">
<ele>222.841</ele>
<time>2018-07-07T02:56:23.300Z</time>
</trkpt>
<trkpt lat="22.2742411" lon="114.2229779">
<ele>220.788</ele>
<time>2018-07-07T02:56:32.843Z</time>
</trkpt>
<trkpt lat="22.2741460" lon="114.2229956">
<ele>214.988</ele>
<time>2018-07-07T02:56:41.702Z</time>
</trkpt>
<trkpt lat="22.2740527" lon="114.2229778">
<ele>209.282</ele>
<time>2018-07-07T02:56:50.751Z</time>
</trkpt>
<trkpt lat="22.2739592" lon="114.2229555">
<ele>207.457</ele>
<time>2018-07-07T02:57:00.269Z</time>
</trkpt>
<trkpt lat="22.2738677" lon="114.2229766">
<ele>208.704</ele>
<time>2018-07-07T02:57:10.176Z</time>
</trkpt>
<trkpt lat="22.2738335" lon="114.2230685">
<ele>210.915</ele>
<time>2018-07-07T02:57:19.928Z</time>
</trkpt>
<trkpt lat="22.2738545" lon="114.2231731">
<ele>212.657</ele>
<time>2018-07-07T02:57:28.211Z</time>
</trkpt>
<trkpt lat="22.2737951" lon="114.2232655">
<ele>213.296</ele>
<time>2018-07-07T02:57:34.898Z</time>
</trkpt>
<trkpt lat="22.2737110" lon="114.2233061">
<ele>212.927</ele>
<time>2018-07-07T02:57:40.606Z</time>
</trkpt>
<trkpt lat="22.2736194" lon="114.2232993">
<ele>212.245</ele>
<time>2018-07-07T02:57:46.519Z</time>
</trkpt>
<trkpt lat="22.2735270" lon="114.2233093">
<ele>211.824</ele>
<time>2018-07-07T02:57:52.997Z</time>
</trkpt>
<trkpt lat="22.2735270" lon="114.2233093">
<ele>211.719</ele>
<time>2018-07-07T02:58:04.997Z</time>
</trkpt>
<trkpt lat="22.2735270" lon="114.2233093">
<ele>211.729</ele>
<time>2018-07-07T02:58:17.784Z</time>
</trkpt>
<trkpt lat="22.2733758" lon="114.2233595">
<ele>211.693</ele>
<time>2018-07-07T02:58:37.996Z</time>
</trkpt>
<trkpt lat="22.2733758" lon="114.2233595">
<ele>211.608</ele>
<time>2018-07-07T02:58:58.996Z</time>
</trkpt>
<trkpt lat="22.2733758" lon="114.2233595">
<ele>211.524</ele>
<time>2018-07-07T02:59:01.439Z</time>
</trkpt>
<trkpt lat="22.2732953" lon="114.2235113">
<ele>211.464</ele>
<time>2018-07-07T02:59:22.241Z</time>
</trkpt>
<trkpt lat="22.2733086" lon="114.2236088">
<ele>211.485</ele>
<time>2018-07-07T02:59:32.427Z</time>
</trkpt>
<trkpt lat="22.2733080" lon="114.2237163">
<ele>211.613</ele>
<time>2018-07-07T02:59:43.776Z</time>
</trkpt>
<trkpt lat="22.2732877" lon="114.2238137">
<ele>211.767</ele>
<time>2018-07-07T02:59:50.469Z</time>
</trkpt>
<trkpt lat="22.2732120" lon="114.2238953">
<ele>212.032</ele>
<time>2018-07-07T02:59:58.750Z</time>
</trkpt>
<trkpt lat="22.2732139" lon="114.2239926">
<ele>212.817</ele>
<time>2018-07-07T03:00:09.163Z</time>
</trkpt>
<trkpt lat="22.2732989" lon="114.2240307">
<ele>214.064</ele>
<time>2018-07-07T03:00:20.328Z</time>
</trkpt>
<trkpt lat="22.2733596" lon="114.2241186">
<ele>214.901</ele>
<time>2018-07-07T03:00:29.694Z</time>
</trkpt>
<trkpt lat="22.2734594" lon="114.2241266">
<ele>214.718</ele>
<time>2018-07-07T03:00:37.522Z</time>
</trkpt>
<trkpt lat="22.2735519" lon="114.2241190">
<ele>213.717</ele>
<time>2018-07-07T03:00:44.675Z</time>
</trkpt>
<trkpt lat="22.2736490" lon="114.2241169">
<ele>212.270</ele>
<time>2018-07-07T03:00:52.994Z</time>
</trkpt>
<trkpt lat="22.2736490" lon="114.2241169">
<ele>210.830</ele>
<time>2018-07-07T03:01:01.994Z</time>
</trkpt>
<trkpt lat="22.2736490" lon="114.2241169">
<ele>210.022</ele>
<time>2018-07-07T03:01:33.262Z</time>
</trkpt>
<trkpt lat="22.2737311" lon="114.2242219">
<ele>209.999</ele>
<time>2018-07-07T03:01:49.777Z</time>
</trkpt>
<trkpt lat="22.2736849" lon="114.2243072">
<ele>209.261</ele>
<time>2018-07-07T03:01:55.999Z</time>
</trkpt>
<trkpt lat="22.2736849" lon="114.2243072">
<ele>206.778</ele>
<time>2018-07-07T03:02:02.999Z</time>
</trkpt>
<trkpt lat="22.2736849" lon="114.2243072">
<ele>204.561</ele>
<time>2018-07-07T03:03:24.242Z</time>
</trkpt>
<trkpt lat="22.2735709" lon="114.2243789">
<ele>204.500</ele>
<time>2018-07-07T03:03:40.196Z</time>
</trkpt>
<trkpt lat="22.2734452" lon="114.2243488">
<ele>205.401</ele>
<time>2018-07-07T03:03:50.800Z</time>
</trkpt>
<trkpt lat="22.2733460" lon="114.2243699">
<ele>205.718</ele>
<time>2018-07-07T03:04:00.045Z</time>
</trkpt>
<trkpt lat="22.2732703" lon="114.2244409">
<ele>205.473</ele>
<time>2018-07-07T03:04:07.997Z</time>
</trkpt>
<trkpt lat="22.2732703" lon="114.2244409">
<ele>205.245</ele>
<time>2018-07-07T03:04:16.996Z</time>
</trkpt>
<trkpt lat="22.2732703" lon="114.2244409">
<ele>205.188</ele>
<time>2018-07-07T03:04:47.996Z</time>
</trkpt>
<trkpt lat="22.2732703" lon="114.2244409">
<ele>205.166</ele>
<time>2018-07-07T03:04:48.096Z</time>
</trkpt>
<trkpt lat="22.2732974" lon="114.2245443">
<ele>205.107</ele>
<time>2018-07-07T03:05:08.489Z</time>
</trkpt>
<trkpt lat="22.2733616" lon="114.2246160">
<ele>205.030</ele>
<time>2018-07-07T03:05:17.995Z</time>
</trkpt>
<trkpt lat="22.2733616" lon="114.2246160">
<ele>204.952</ele>
<time>2018-07-07T03:05:23.995Z</time>
</trkpt>
<trkpt lat="22.2733616" lon="114.2246160">
<ele>204.857</ele>
<time>2018-07-07T03:05:24.095Z</time>
</trkpt>
<trkpt lat="22.2734270" lon="114.2246864">
<ele>204.766</ele>
<time>2018-07-07T03:06:38.444Z</time>
</trkpt>
<trkpt lat="22.2734970" lon="114.2247477">
<ele>204.559</ele>
<time>2018-07-07T03:06:55.204Z</time>
</trkpt>
<trkpt lat="22.2735560" lon="114.2248291">
<ele>203.586</ele>
<time>2018-07-07T03:07:09.860Z</time>
</trkpt>
<trkpt lat="22.2736516" lon="114.2248316">
<ele>200.979</ele>
<time>2018-07-07T03:07:25.992Z</time>
</trkpt>
<trkpt lat="22.2736516" lon="114.2248316">
<ele>197.356</ele>
<time>2018-07-07T03:07:27.992Z</time>
</trkpt>
<trkpt lat="22.2736516" lon="114.2248316">
<ele>195.036</ele>
<time>2018-07-07T03:07:41.991Z</time>
</trkpt>
<trkpt lat="22.2736516" lon="114.2248316">
<ele>195.081</ele>
<time>2018-07-07T03:10:45.998Z</time>
</trkpt>
<trkpt lat="22.2736516" lon="114.2248316">
<ele>195.871</ele>
<time>2018-07-07T03:12:34.262Z</time>
</trkpt>
<trkpt lat="22.2736516" lon="114.2248316">
<ele>195.330</ele>
<time>2018-07-07T03:12:52.995Z</time>
</trkpt>
<trkpt lat="22.2736516" lon="114.2248316">
<ele>194.958</ele>
<time>2018-07-07T03:13:36.049Z</time>
</trkpt>
<trkpt lat="22.2737853" lon="114.2249138">
<ele>194.896</ele>
<time>2018-07-07T03:13:51.993Z</time>
</trkpt>
<trkpt lat="22.2737853" lon="114.2249138">
<ele>194.930</ele>
<time>2018-07-07T03:13:54.993Z</time>
</trkpt>
<trkpt lat="22.2737853" lon="114.2249138">
<ele>194.862</ele>
<time>2018-07-07T03:14:05.318Z</time>
</trkpt>
<trkpt lat="22.2737668" lon="114.2250605">
<ele>194.741</ele>
<time>2018-07-07T03:14:23.600Z</time>
</trkpt>
<trkpt lat="22.2737467" lon="114.2251675">
<ele>192.331</ele>
<time>2018-07-07T03:14:31.176Z</time>
</trkpt>
<trkpt lat="22.2737186" lon="114.2252689">
<ele>186.220</ele>
<time>2018-07-07T03:14:37.139Z</time>
</trkpt>
<trkpt lat="22.2736692" lon="114.2253657">
<ele>180.099</ele>
<time>2018-07-07T03:14:43.471Z</time>
</trkpt>
<trkpt lat="22.2736506" lon="114.2254724">
<ele>177.578</ele>
<time>2018-07-07T03:14:50.082Z</time>
</trkpt>
<trkpt lat="22.2736904" lon="114.2255682">
<ele>177.789</ele>
<time>2018-07-07T03:14:56.930Z</time>
</trkpt>
<trkpt lat="22.2737214" lon="114.2256654">
<ele>178.901</ele>
<time>2018-07-07T03:15:02.992Z</time>
</trkpt>
<trkpt lat="22.2737214" lon="114.2256654">
<ele>179.819</ele>
<time>2018-07-07T03:15:06.992Z</time>
</trkpt>
<trkpt lat="22.2737214" lon="114.2256654">
<ele>180.176</ele>
<time>2018-07-07T03:15:07.092Z</time>
</trkpt>
<trkpt lat="22.2737497" lon="114.2257627">
<ele>179.780</ele>
<time>2018-07-07T03:15:30.436Z</time>
</trkpt>
<trkpt lat="22.2737408" lon="114.2258616">
<ele>179.494</ele>
<time>2018-07-07T03:15:40.991Z</time>
</trkpt>
<trkpt lat="22.2737408" lon="114.2258616">
<ele>179.132</ele>
<time>2018-07-07T03:15:48.991Z</time>
</trkpt>
<trkpt lat="22.2737408" lon="114.2258616">
<ele>178.847</ele>
<time>2018-07-07T03:16:02.808Z</time>
</trkpt>
<trkpt lat="22.2737667" lon="114.2259736">
<ele>178.782</ele>
<time>2018-07-07T03:16:20.824Z</time>
</trkpt>
<trkpt lat="22.2737218" lon="114.2260639">
<ele>177.939</ele>
<time>2018-07-07T03:16:30.756Z</time>
</trkpt>
<trkpt lat="22.2737373" lon="114.2261746">
<ele>175.623</ele>
<time>2018-07-07T03:16:37.422Z</time>
</trkpt>
<trkpt lat="22.2737823" lon="114.2262662">
<ele>173.164</ele>
<time>2018-07-07T03:16:42.562Z</time>
</trkpt>
<trkpt lat="22.2738111" lon="114.2263691">
<ele>171.722</ele>
<time>2018-07-07T03:16:48.942Z</time>
</trkpt>
<trkpt lat="22.2737626" lon="114.2264624">
<ele>170.810</ele>
<time>2018-07-07T03:16:55.959Z</time>
</trkpt>
<trkpt lat="22.2736709" lon="114.2265345">
<ele>170.012</ele>
<time>2018-07-07T03:17:03.602Z</time>
</trkpt>
<trkpt lat="22.2736005" lon="114.2265950">
<ele>169.399</ele>
<time>2018-07-07T03:17:09.279Z</time>
</trkpt>
<trkpt lat="22.2735643" lon="114.2266992">
<ele>169.083</ele>
<time>2018-07-07T03:17:16.044Z</time>
</trkpt>
<trkpt lat="22.2735437" lon="114.2268024">
<ele>169.016</ele>
<time>2018-07-07T03:17:22.887Z</time>
</trkpt>
<trkpt lat="22.2735641" lon="114.2269010">
<ele>169.051</ele>
<time>2018-07-07T03:17:29.588Z</time>
</trkpt>
<trkpt lat="22.2735798" lon="114.2270206">
<ele>169.093</ele>
<time>2018-07-07T03:17:36.909Z</time>
</trkpt>
<trkpt lat="22.2735831" lon="114.2271282">
<ele>169.110</ele>
<time>2018-07-07T03:17:42.571Z</time>
</trkpt>
<trkpt lat="22.2735902" lon="114.2272312">
<ele>169.103</ele>
<time>2018-07-07T03:17:47.998Z</time>
</trkpt>
<trkpt lat="22.2735902" lon="114.2272312">
<ele>169.064</ele>
<time>2018-07-07T03:17:55.998Z</time>
</trkpt>
<trkpt lat="22.2735902" lon="114.2272312">
<ele>168.993</ele>
<time>2018-07-07T03:19:18.714Z</time>
</trkpt>
<trkpt lat="22.2735637" lon="114.2273309">
<ele>168.922</ele>
<time>2018-07-07T03:20:34.923Z</time>
</trkpt>
<trkpt lat="22.2735009" lon="114.2274098">
<ele>168.719</ele>
<time>2018-07-07T03:20:42.959Z</time>
</trkpt>
<trkpt lat="22.2734460" lon="114.2274910">
<ele>168.242</ele>
<time>2018-07-07T03:20:49.963Z</time>
</trkpt>
<trkpt lat="22.2734782" lon="114.2275859">
<ele>167.744</ele>
<time>2018-07-07T03:20:57.187Z</time>
</trkpt>
<trkpt lat="22.2734572" lon="114.2276942">
<ele>167.604</ele>
<time>2018-07-07T03:21:05.626Z</time>
</trkpt>
<trkpt lat="22.2735301" lon="114.2277557">
<ele>167.832</ele>
<time>2018-07-07T03:21:14.757Z</time>
</trkpt>
<trkpt lat="22.2735904" lon="114.2278284">
<ele>168.170</ele>
<time>2018-07-07T03:21:23.765Z</time>
</trkpt>
<trkpt lat="22.2736136" lon="114.2279277">
<ele>168.183</ele>
<time>2018-07-07T03:21:30.749Z</time>
</trkpt>
<trkpt lat="22.2735869" lon="114.2280377">
<ele>167.584</ele>
<time>2018-07-07T03:21:37.292Z</time>
</trkpt>
<trkpt lat="22.2735364" lon="114.2281348">
<ele>166.579</ele>
<time>2018-07-07T03:21:43.486Z</time>
</trkpt>
<trkpt lat="22.2735070" lon="114.2282335">
<ele>165.609</ele>
<time>2018-07-07T03:21:48.942Z</time>
</trkpt>
<trkpt lat="22.2734641" lon="114.2283320">
<ele>164.874</ele>
<time>2018-07-07T03:21:54.594Z</time>
</trkpt>
<trkpt lat="22.2733984" lon="114.2284055">
<ele>164.381</ele>
<time>2018-07-07T03:22:01.414Z</time>
</trkpt>
<trkpt lat="22.2733133" lon="114.2283610">
<ele>164.128</ele>
<time>2018-07-07T03:22:10.437Z</time>
</trkpt>
<trkpt lat="22.2732202" lon="114.2283287">
<ele>164.146</ele>
<time>2018-07-07T03:22:22.055Z</time>
</trkpt>
<trkpt lat="22.2731211" lon="114.2283234">
<ele>164.504</ele>
<time>2018-07-07T03:22:30.838Z</time>
</trkpt>
<trkpt lat="22.2730275" lon="114.2283258">
<ele>165.189</ele>
<time>2018-07-07T03:22:37.502Z</time>
</trkpt>
<trkpt lat="22.2729511" lon="114.2283986">
<ele>166.081</ele>
<time>2018-07-07T03:22:45.114Z</time>
</trkpt>
<trkpt lat="22.2729232" lon="114.2284947">
<ele>166.972</ele>
<time>2018-07-07T03:22:52.041Z</time>
</trkpt>
<trkpt lat="22.2728752" lon="114.2285860">
<ele>167.596</ele>
<time>2018-07-07T03:22:58.986Z</time>
</trkpt>
<trkpt lat="22.2728579" lon="114.2286892">
<ele>167.829</ele>
<time>2018-07-07T03:23:07.504Z</time>
</trkpt>
<trkpt lat="22.2728345" lon="114.2287861">
<ele>167.748</ele>
<time>2018-07-07T03:23:17.435Z</time>
</trkpt>
<trkpt lat="22.2728051" lon="114.2288951">
<ele>167.494</ele>
<time>2018-07-07T03:23:26.932Z</time>
</trkpt>
<trkpt lat="22.2727541" lon="114.2289842">
<ele>167.281</ele>
<time>2018-07-07T03:23:32.778Z</time>
</trkpt>
<trkpt lat="22.2726805" lon="114.2290457">
<ele>167.215</ele>
<time>2018-07-07T03:23:38.079Z</time>
</trkpt>
<trkpt lat="22.2726079" lon="114.2291127">
<ele>167.283</ele>
<time>2018-07-07T03:23:43.998Z</time>
</trkpt>
<trkpt lat="22.2726079" lon="114.2291127">
<ele>167.421</ele>
<time>2018-07-07T03:23:51.999Z</time>
</trkpt>
<trkpt lat="22.2726079" lon="114.2291127">
<ele>167.491</ele>
<time>2018-07-07T03:24:05.075Z</time>
</trkpt>
<trkpt lat="22.2725331" lon="114.2291865">
<ele>167.418</ele>
<time>2018-07-07T03:24:22.636Z</time>
</trkpt>
<trkpt lat="22.2724834" lon="114.2292782">
<ele>167.331</ele>
<time>2018-07-07T03:24:33.555Z</time>
</trkpt>
<trkpt lat="22.2723957" lon="114.2293196">
<ele>167.352</ele>
<time>2018-07-07T03:24:41.223Z</time>
</trkpt>
<trkpt lat="22.2723049" lon="114.2293129">
<ele>167.427</ele>
<time>2018-07-07T03:24:46.092Z</time>
</trkpt>
<trkpt lat="22.2722143" lon="114.2293044">
<ele>167.495</ele>
<time>2018-07-07T03:24:50.897Z</time>
</trkpt>
<trkpt lat="22.2721193" lon="114.2292781">
<ele>167.561</ele>
<time>2018-07-07T03:24:57.426Z</time>
</trkpt>
<trkpt lat="22.2720170" lon="114.2292842">
<ele>167.669</ele>
<time>2018-07-07T03:25:05.875Z</time>
</trkpt>
<trkpt lat="22.2719608" lon="114.2293616">
<ele>167.828</ele>
<time>2018-07-07T03:25:16.676Z</time>
</trkpt>
<trkpt lat="22.2719355" lon="114.2294644">
<ele>167.887</ele>
<time>2018-07-07T03:25:28.768Z</time>
</trkpt>
<trkpt lat="22.2718888" lon="114.2295475">
<ele>167.715</ele>
<time>2018-07-07T03:25:37.814Z</time>
</trkpt>
<trkpt lat="22.2718142" lon="114.2296071">
<ele>167.315</ele>
<time>2018-07-07T03:25:46.566Z</time>
</trkpt>
<trkpt lat="22.2717161" lon="114.2296252">
<ele>166.799</ele>
<time>2018-07-07T03:25:55.700Z</time>
</trkpt>
<trkpt lat="22.2716734" lon="114.2297138">
<ele>166.527</ele>
<time>2018-07-07T03:26:04.485Z</time>
</trkpt>
<trkpt lat="22.2716218" lon="114.2297976">
<ele>166.715</ele>
<time>2018-07-07T03:26:13.996Z</time>
</trkpt>
<trkpt lat="22.2716218" lon="114.2297976">
<ele>166.962</ele>
<time>2018-07-07T03:26:15.996Z</time>
</trkpt>
<trkpt lat="22.2716218" lon="114.2297976">
<ele>166.902</ele>
<time>2018-07-07T03:26:17.517Z</time>
</trkpt>
<trkpt lat="22.2715841" lon="114.2298974">
<ele>166.717</ele>
<time>2018-07-07T03:26:28.996Z</time>
</trkpt>
<trkpt lat="22.2715841" lon="114.2298974">
<ele>166.659</ele>
<time>2018-07-07T03:26:37.996Z</time>
</trkpt>
<trkpt lat="22.2715841" lon="114.2298974">
<ele>166.668</ele>
<time>2018-07-07T03:26:38.096Z</time>
</trkpt>
<trkpt lat="22.2715922" lon="114.2300061">
<ele>166.620</ele>
<time>2018-07-07T03:26:59.995Z</time>
</trkpt>
<trkpt lat="22.2715922" lon="114.2300061">
<ele>166.528</ele>
<time>2018-07-07T03:27:01.995Z</time>
</trkpt>
<trkpt lat="22.2715922" lon="114.2300061">
<ele>166.441</ele>
<time>2018-07-07T03:27:13.504Z</time>
</trkpt>
<trkpt lat="22.2716283" lon="114.2301227">
<ele>166.334</ele>
<time>2018-07-07T03:27:31.708Z</time>
</trkpt>
<trkpt lat="22.2716457" lon="114.2302216">
<ele>165.752</ele>
<time>2018-07-07T03:27:41.994Z</time>
</trkpt>
<trkpt lat="22.2716457" lon="114.2302216">
<ele>164.267</ele>
<time>2018-07-07T03:27:58.994Z</time>
</trkpt>
<trkpt lat="22.2716457" lon="114.2302216">
<ele>163.004</ele>
<time>2018-07-07T03:27:59.094Z</time>
</trkpt>
<trkpt lat="22.2716534" lon="114.2303629">
<ele>162.957</ele>
<time>2018-07-07T03:28:12.993Z</time>
</trkpt>
<trkpt lat="22.2716534" lon="114.2303629">
<ele>163.360</ele>
<time>2018-07-07T03:28:24.993Z</time>
</trkpt>
<trkpt lat="22.2716534" lon="114.2303629">
<ele>163.341</ele>
<time>2018-07-07T03:28:25.093Z</time>
</trkpt>
<trkpt lat="22.2716513" lon="114.2304634">
<ele>163.004</ele>
<time>2018-07-07T03:29:19.992Z</time>
</trkpt>
<trkpt lat="22.2716513" lon="114.2304634">
<ele>163.021</ele>
<time>2018-07-07T03:29:24.992Z</time>
</trkpt>
<trkpt lat="22.2716513" lon="114.2304634">
<ele>162.966</ele>
<time>2018-07-07T03:29:25.092Z</time>
</trkpt>
<trkpt lat="22.2716513" lon="114.2304634">
<ele>162.823</ele>
<time>2018-07-07T03:29:43.991Z</time>
</trkpt>
<trkpt lat="22.2716513" lon="114.2304634">
<ele>162.794</ele>
<time>2018-07-07T03:29:44.091Z</time>
</trkpt>
<trkpt lat="22.2716513" lon="114.2304634">
<ele>162.677</ele>
<time>2018-07-07T03:29:47.991Z</time>
</trkpt>
<trkpt lat="22.2716513" lon="114.2304634">
<ele>162.626</ele>
<time>2018-07-07T03:30:08.227Z</time>
</trkpt>
<trkpt lat="22.2716992" lon="114.2305494">
<ele>162.524</ele>
<time>2018-07-07T03:30:26.344Z</time>
</trkpt>
<trkpt lat="22.2716822" lon="114.2306560">
<ele>159.586</ele>
<time>2018-07-07T03:30:33.792Z</time>
</trkpt>
<trkpt lat="22.2716227" lon="114.2307315">
<ele>151.893</ele>
<time>2018-07-07T03:30:39.502Z</time>
</trkpt>
<trkpt lat="22.2715728" lon="114.2308252">
<ele>143.782</ele>
<time>2018-07-07T03:30:47.153Z</time>
</trkpt>
<trkpt lat="22.2716721" lon="114.2307856">
<ele>139.676</ele>
<time>2018-07-07T03:30:55.658Z</time>
</trkpt>
<trkpt lat="22.2717298" lon="114.2307009">
<ele>138.549</ele>
<time>2018-07-07T03:31:02.243Z</time>
</trkpt>
<trkpt lat="22.2718180" lon="114.2306517">
<ele>138.198</ele>
<time>2018-07-07T03:31:07.999Z</time>
</trkpt>
<trkpt lat="22.2718180" lon="114.2306517">
<ele>137.749</ele>
<time>2018-07-07T03:31:16.999Z</time>
</trkpt>
<trkpt lat="22.2718180" lon="114.2306517">
<ele>137.437</ele>
<time>2018-07-07T03:31:17.099Z</time>
</trkpt>
<trkpt lat="22.2719254" lon="114.2305470">
<ele>137.395</ele>
<time>2018-07-07T03:31:28.998Z</time>
</trkpt>
<trkpt lat="22.2719254" lon="114.2305470">
<ele>137.438</ele>
<time>2018-07-07T03:31:33.998Z</time>
</trkpt>
<trkpt lat="22.2719254" lon="114.2305470">
<ele>137.392</ele>
<time>2018-07-07T03:32:07.998Z</time>
</trkpt>
<trkpt lat="22.2719254" lon="114.2305470">
<ele>137.296</ele>
<time>2018-07-07T03:32:21.642Z</time>
</trkpt>
<trkpt lat="22.2719254" lon="114.2305470">
<ele>137.219</ele>
<time>2018-07-07T03:32:36.997Z</time>
</trkpt>
<trkpt lat="22.2719254" lon="114.2305470">
<ele>137.200</ele>
<time>2018-07-07T03:32:44.019Z</time>
</trkpt>
<trkpt lat="22.2717869" lon="114.2306592">
<ele>137.149</ele>
<time>2018-07-07T03:33:02.306Z</time>
</trkpt>
<trkpt lat="22.2717485" lon="114.2307498">
<ele>136.572</ele>
<time>2018-07-07T03:33:08.996Z</time>
</trkpt>
<trkpt lat="22.2717485" lon="114.2307498">
<ele>135.189</ele>
<time>2018-07-07T03:33:12.996Z</time>
</trkpt>
<trkpt lat="22.2717485" lon="114.2307498">
<ele>134.034</ele>
<time>2018-07-07T03:33:13.096Z</time>
</trkpt>
<trkpt lat="22.2716593" lon="114.2308339">
<ele>134.541</ele>
<time>2018-07-07T03:33:33.588Z</time>
</trkpt>
<trkpt lat="22.2715667" lon="114.2308167">
<ele>134.708</ele>
<time>2018-07-07T03:33:45.598Z</time>
</trkpt>
<trkpt lat="22.2714933" lon="114.2308882">
<ele>134.216</ele>
<time>2018-07-07T03:33:55.031Z</time>
</trkpt>
<trkpt lat="22.2714151" lon="114.2309637">
<ele>133.687</ele>
<time>2018-07-07T03:34:00.936Z</time>
</trkpt>
<trkpt lat="22.2713389" lon="114.2310289">
<ele>133.687</ele>
<time>2018-07-07T03:34:05.330Z</time>
</trkpt>
<trkpt lat="22.2712774" lon="114.2311051">
<ele>133.918</ele>
<time>2018-07-07T03:34:09.933Z</time>
</trkpt>
<trkpt lat="22.2712810" lon="114.2312102">
<ele>133.980</ele>
<time>2018-07-07T03:34:15.296Z</time>
</trkpt>
<trkpt lat="22.2712522" lon="114.2313101">
<ele>133.823</ele>
<time>2018-07-07T03:34:21.930Z</time>
</trkpt>
<trkpt lat="22.2712617" lon="114.2314196">
<ele>133.399</ele>
<time>2018-07-07T03:34:28.995Z</time>
</trkpt>
<trkpt lat="22.2712617" lon="114.2314196">
<ele>132.778</ele>
<time>2018-07-07T03:34:38.994Z</time>
</trkpt>
<trkpt lat="22.2712617" lon="114.2314196">
<ele>132.348</ele>
<time>2018-07-07T03:35:12.181Z</time>
</trkpt>
<trkpt lat="22.2712443" lon="114.2313148">
<ele>132.469</ele>
<time>2018-07-07T03:35:27.490Z</time>
</trkpt>
<trkpt lat="22.2712152" lon="114.2312189">
<ele>132.454</ele>
<time>2018-07-07T03:35:35.198Z</time>
</trkpt>
<trkpt lat="22.2712529" lon="114.2311234">
<ele>132.133</ele>
<time>2018-07-07T03:35:44.742Z</time>
</trkpt>
<trkpt lat="22.2713131" lon="114.2310401">
<ele>131.961</ele>
<time>2018-07-07T03:35:56.335Z</time>
</trkpt>
<trkpt lat="22.2713920" lon="114.2309710">
<ele>132.329</ele>
<time>2018-07-07T03:36:07.418Z</time>
</trkpt>
<trkpt lat="22.2714871" lon="114.2309332">
<ele>132.910</ele>
<time>2018-07-07T03:36:15.243Z</time>
</trkpt>
<trkpt lat="22.2715598" lon="114.2308534">
<ele>133.309</ele>
<time>2018-07-07T03:36:22.992Z</time>
</trkpt>
<trkpt lat="22.2715960" lon="114.2307516">
<ele>133.548</ele>
<time>2018-07-07T03:36:30.333Z</time>
</trkpt>
<trkpt lat="22.2716135" lon="114.2306511">
<ele>133.721</ele>
<time>2018-07-07T03:36:37.857Z</time>
</trkpt>
<trkpt lat="22.2715937" lon="114.2305505">
<ele>133.823</ele>
<time>2018-07-07T03:36:46.991Z</time>
</trkpt>
<trkpt lat="22.2715937" lon="114.2305505">
<ele>133.830</ele>
<time>2018-07-07T03:36:48.991Z</time>
</trkpt>
<trkpt lat="22.2715937" lon="114.2305505">
<ele>133.768</ele>
<time>2018-07-07T03:36:49.091Z</time>
</trkpt>
<trkpt lat="22.2716008" lon="114.2304384">
<ele>133.666</ele>
<time>2018-07-07T03:37:00.991Z</time>
</trkpt>
<trkpt lat="22.2716008" lon="114.2304384">
<ele>133.662</ele>
<time>2018-07-07T03:37:11.991Z</time>
</trkpt>
<trkpt lat="22.2716008" lon="114.2304384">
<ele>133.646</ele>
<time>2018-07-07T03:39:47.434Z</time>
</trkpt>
<trkpt lat="22.2716042" lon="114.2303025">
<ele>133.593</ele>
<time>2018-07-07T03:40:32.790Z</time>
</trkpt>
<trkpt lat="22.2716724" lon="114.2303730">
<ele>135.186</ele>
<time>2018-07-07T03:40:42.996Z</time>
</trkpt>
<trkpt lat="22.2716724" lon="114.2303730">
<ele>139.457</ele>
<time>2018-07-07T03:40:44.996Z</time>
</trkpt>
<trkpt lat="22.2716724" lon="114.2303730">
<ele>143.015</ele>
<time>2018-07-07T03:40:45.096Z</time>
</trkpt>
<trkpt lat="22.2716724" lon="114.2303730">
<ele>140.945</ele>
<time>2018-07-07T03:41:25.995Z</time>
</trkpt>
<trkpt lat="22.2716724" lon="114.2303730">
<ele>139.716</ele>
<time>2018-07-07T03:41:26.095Z</time>
</trkpt>
<trkpt lat="22.2716724" lon="114.2303730">
<ele>140.294</ele>
<time>2018-07-07T03:41:28.995Z</time>
</trkpt>
<trkpt lat="22.2716724" lon="114.2303730">
<ele>140.626</ele>
<time>2018-07-07T03:41:29.482Z</time>
</trkpt>
<trkpt lat="22.2716550" lon="114.2304697">
<ele>140.304</ele>
<time>2018-07-07T03:41:52.910Z</time>
</trkpt>
<trkpt lat="22.2716572" lon="114.2305708">
<ele>140.338</ele>
<time>2018-07-07T03:42:01.115Z</time>
</trkpt>
<trkpt lat="22.2716316" lon="114.2306733">
<ele>140.793</ele>
<time>2018-07-07T03:42:07.020Z</time>
</trkpt>
<trkpt lat="22.2715991" lon="114.2307835">
<ele>141.233</ele>
<time>2018-07-07T03:42:12.994Z</time>
</trkpt>
<trkpt lat="22.2715991" lon="114.2307835">
<ele>141.273</ele>
<time>2018-07-07T03:42:18.994Z</time>
</trkpt>
<trkpt lat="22.2715991" lon="114.2307835">
<ele>141.112</ele>
<time>2018-07-07T03:43:04.823Z</time>
</trkpt>
<trkpt lat="22.2716469" lon="114.2308816">
<ele>141.022</ele>
<time>2018-07-07T03:43:23.060Z</time>
</trkpt>
<trkpt lat="22.2716889" lon="114.2307936">
<ele>139.981</ele>
<time>2018-07-07T03:43:34.106Z</time>
</trkpt>
<trkpt lat="22.2717333" lon="114.2306954">
<ele>137.124</ele>
<time>2018-07-07T03:43:43.350Z</time>
</trkpt>
<trkpt lat="22.2717919" lon="114.2306124">
<ele>133.835</ele>
<time>2018-07-07T03:43:49.994Z</time>
</trkpt>
<trkpt lat="22.2717919" lon="114.2306124">
<ele>131.935</ele>
<time>2018-07-07T03:43:56.994Z</time>
</trkpt>
<trkpt lat="22.2717919" lon="114.2306124">
<ele>131.441</ele>
<time>2018-07-07T03:43:57.094Z</time>
</trkpt>
<trkpt lat="22.2718978" lon="114.2305105">
<ele>131.556</ele>
<time>2018-07-07T03:44:12.834Z</time>
</trkpt>
<trkpt lat="22.2719888" lon="114.2304976">
<ele>131.710</ele>
<time>2018-07-07T03:44:19.993Z</time>
</trkpt>
<trkpt lat="22.2719888" lon="114.2304976">
<ele>131.774</ele>
<time>2018-07-07T03:44:30.993Z</time>
</trkpt>
<trkpt lat="22.2719888" lon="114.2304976">
<ele>131.740</ele>
<time>2018-07-07T03:44:43.993Z</time>
</trkpt>
<trkpt lat="22.2719888" lon="114.2304976">
<ele>131.667</ele>
<time>2018-07-07T03:44:44.093Z</time>
</trkpt>
<trkpt lat="22.2721083" lon="114.2304852">
<ele>131.614</ele>
<time>2018-07-07T03:44:56.992Z</time>
</trkpt>
<trkpt lat="22.2721083" lon="114.2304852">
<ele>131.594</ele>
<time>2018-07-07T03:44:59.998Z</time>
</trkpt>
<trkpt lat="22.2721083" lon="114.2304852">
<ele>131.573</ele>
<time>2018-07-07T03:45:01.572Z</time>
</trkpt>
<trkpt lat="22.2721083" lon="114.2304852">
<ele>131.468</ele>
<time>2018-07-07T03:45:11.999Z</time>
</trkpt>
<trkpt lat="22.2721083" lon="114.2304852">
<ele>131.429</ele>
<time>2018-07-07T03:45:13.999Z</time>
</trkpt>
<trkpt lat="22.2721552" lon="114.2304003">
<ele>135.540</ele>
<time>2018-07-07T03:45:43.820Z</time>
</trkpt>
<trkpt lat="22.2722282" lon="114.2303199">
<ele>135.477</ele>
<time>2018-07-07T03:46:04.758Z</time>
</trkpt>
<trkpt lat="22.2723155" lon="114.2302651">
<ele>135.513</ele>
<time>2018-07-07T03:46:25.061Z</time>
</trkpt>
<trkpt lat="22.2722346" lon="114.2303287">
<ele>135.665</ele>
<time>2018-07-07T03:46:45.183Z</time>
</trkpt>
<trkpt lat="22.2721789" lon="114.2304120">
<ele>135.399</ele>
<time>2018-07-07T03:47:04.293Z</time>
</trkpt>
<trkpt lat="22.2721789" lon="114.2304120">
<ele>135.399</ele>
<time>2018-07-07T03:47:04.293Z</time>
</trkpt>
<trkpt lat="22.2720364" lon="114.2304789">
<ele>130.987</ele>
<time>2018-07-07T03:47:35.552Z</time>
</trkpt>
<trkpt lat="22.2719431" lon="114.2304754">
<ele>130.927</ele>
<time>2018-07-07T03:47:54.336Z</time>
</trkpt>
<trkpt lat="22.2718685" lon="114.2305350">
<ele>130.799</ele>
<time>2018-07-07T03:48:12.616Z</time>
</trkpt>
<trkpt lat="22.2717952" lon="114.2305956">
<ele>130.525</ele>
<time>2018-07-07T03:48:30.214Z</time>
</trkpt>
<trkpt lat="22.2717293" lon="114.2306617">
<ele>130.365</ele>
<time>2018-07-07T03:48:49.019Z</time>
</trkpt>
<trkpt lat="22.2716692" lon="114.2307403">
<ele>130.709</ele>
<time>2018-07-07T03:49:08.994Z</time>
</trkpt>
<trkpt lat="22.2716692" lon="114.2307403">
<ele>131.450</ele>
<time>2018-07-07T03:49:17.995Z</time>
</trkpt>
<trkpt lat="22.2716692" lon="114.2307403">
<ele>131.951</ele>
<time>2018-07-07T03:49:18.095Z</time>
</trkpt>
<trkpt lat="22.2715338" lon="114.2308701">
<ele>131.876</ele>
<time>2018-07-07T03:49:35.696Z</time>
</trkpt>
<trkpt lat="22.2715156" lon="114.2309692">
<ele>131.771</ele>
<time>2018-07-07T03:49:45.453Z</time>
</trkpt>
<trkpt lat="22.2714201" lon="114.2310077">
<ele>132.128</ele>
<time>2018-07-07T03:49:55.673Z</time>
</trkpt>
<trkpt lat="22.2713194" lon="114.2310327">
<ele>132.650</ele>
<time>2018-07-07T03:50:02.636Z</time>
</trkpt>
<trkpt lat="22.2712454" lon="114.2311097">
<ele>132.903</ele>
<time>2018-07-07T03:50:08.968Z</time>
</trkpt>
<trkpt lat="22.2712570" lon="114.2312104">
<ele>132.873</ele>
<time>2018-07-07T03:50:15.792Z</time>
</trkpt>
<trkpt lat="22.2712911" lon="114.2313081">
<ele>132.632</ele>
<time>2018-07-07T03:50:23.388Z</time>
</trkpt>
<trkpt lat="22.2713174" lon="114.2314104">
<ele>132.071</ele>
<time>2018-07-07T03:50:30.959Z</time>
</trkpt>
<trkpt lat="22.2712780" lon="114.2315031">
<ele>131.262</ele>
<time>2018-07-07T03:50:37.378Z</time>
</trkpt>
<trkpt lat="22.2711969" lon="114.2315506">
<ele>130.701</ele>
<time>2018-07-07T03:50:44.046Z</time>
</trkpt>
<trkpt lat="22.2711109" lon="114.2315797">
<ele>130.791</ele>
<time>2018-07-07T03:50:51.582Z</time>
</trkpt>
<trkpt lat="22.2710386" lon="114.2316448">
<ele>131.373</ele>
<time>2018-07-07T03:51:00.221Z</time>
</trkpt>
<trkpt lat="22.2709501" lon="114.2316885">
<ele>132.127</ele>
<time>2018-07-07T03:51:06.993Z</time>
</trkpt>
<trkpt lat="22.2709501" lon="114.2316885">
<ele>132.691</ele>
<time>2018-07-07T03:51:08.993Z</time>
</trkpt>
<trkpt lat="22.2709501" lon="114.2316885">
<ele>132.803</ele>
<time>2018-07-07T03:51:16.172Z</time>
</trkpt>
<trkpt lat="22.2709501" lon="114.2316885">
<ele>132.544</ele>
<time>2018-07-07T03:51:30.993Z</time>
</trkpt>
<trkpt lat="22.2709501" lon="114.2316885">
<ele>132.506</ele>
<time>2018-07-07T03:52:07.109Z</time>
</trkpt>
<trkpt lat="22.2708638" lon="114.2317926">
<ele>132.495</ele>
<time>2018-07-07T03:52:26.856Z</time>
</trkpt>
<trkpt lat="22.2707748" lon="114.2318140">
<ele>132.634</ele>
<time>2018-07-07T03:52:34.147Z</time>
</trkpt>
<trkpt lat="22.2706931" lon="114.2318713">
<ele>133.140</ele>
<time>2018-07-07T03:52:40.924Z</time>
</trkpt>
<trkpt lat="22.2706413" lon="114.2319594">
<ele>133.898</ele>
<time>2018-07-07T03:52:46.999Z</time>
</trkpt>
<trkpt lat="22.2706413" lon="114.2319594">
<ele>134.480</ele>
<time>2018-07-07T03:52:48.999Z</time>
</trkpt>
<trkpt lat="22.2706413" lon="114.2319594">
<ele>134.656</ele>
<time>2018-07-07T03:53:20.590Z</time>
</trkpt>
<trkpt lat="22.2706408" lon="114.2320575">
<ele>134.402</ele>
<time>2018-07-07T03:53:40.998Z</time>
</trkpt>
<trkpt lat="22.2706408" lon="114.2320575">
<ele>134.318</ele>
<time>2018-07-07T03:53:48.998Z</time>
</trkpt>
<trkpt lat="22.2706408" lon="114.2320575">
<ele>134.288</ele>
<time>2018-07-07T03:53:49.098Z</time>
</trkpt>
<trkpt lat="22.2707189" lon="114.2321182">
<ele>134.210</ele>
<time>2018-07-07T03:54:43.764Z</time>
</trkpt>
<trkpt lat="22.2707936" lon="114.2321727">
<ele>134.045</ele>
<time>2018-07-07T03:55:24.996Z</time>
</trkpt>
<trkpt lat="22.2707936" lon="114.2321727">
<ele>133.699</ele>
<time>2018-07-07T03:56:03.995Z</time>
</trkpt>
<trkpt lat="22.2707936" lon="114.2321727">
<ele>133.400</ele>
<time>2018-07-07T03:56:04.095Z</time>
</trkpt>
<trkpt lat="22.2708629" lon="114.2322469">
<ele>133.351</ele>
<time>2018-07-07T03:56:30.820Z</time>
</trkpt>
<trkpt lat="22.2708641" lon="114.2323451">
<ele>132.404</ele>
<time>2018-07-07T03:56:52.994Z</time>
</trkpt>
<trkpt lat="22.2708641" lon="114.2323451">
<ele>129.787</ele>
<time>2018-07-07T03:57:12.993Z</time>
</trkpt>
<trkpt lat="22.2708641" lon="114.2323451">
<ele>127.548</ele>
<time>2018-07-07T03:57:13.093Z</time>
</trkpt>
<trkpt lat="22.2708585" lon="114.2324655">
<ele>127.528</ele>
<time>2018-07-07T03:57:32.496Z</time>
</trkpt>
<trkpt lat="22.2708827" lon="114.2325613">
<ele>127.149</ele>
<time>2018-07-07T03:57:38.993Z</time>
</trkpt>
<trkpt lat="22.2708827" lon="114.2325613">
<ele>124.096</ele>
<time>2018-07-07T03:57:48.992Z</time>
</trkpt>
<trkpt lat="22.2708827" lon="114.2325613">
<ele>121.122</ele>
<time>2018-07-07T03:58:15.775Z</time>
</trkpt>
<trkpt lat="22.2708827" lon="114.2325613">
<ele>122.594</ele>
<time>2018-07-07T03:58:34.991Z</time>
</trkpt>
<trkpt lat="22.2708827" lon="114.2325613">
<ele>123.544</ele>
<time>2018-07-07T03:58:35.091Z</time>
</trkpt>
<trkpt lat="22.2709602" lon="114.2326445">
<ele>122.885</ele>
<time>2018-07-07T03:58:37.991Z</time>
</trkpt>
<trkpt lat="22.2709602" lon="114.2326445">
<ele>121.105</ele>
<time>2018-07-07T03:58:37.992Z</time>
</trkpt>
<trkpt lat="22.2709602" lon="114.2326445">
<ele>117.348</ele>
<time>2018-07-07T03:58:49.127Z</time>
</trkpt>
<trkpt lat="22.2709044" lon="114.2327236">
<ele>116.193</ele>
<time>2018-07-07T03:59:08.378Z</time>
</trkpt>
<trkpt lat="22.2708553" lon="114.2328073">
<ele>117.855</ele>
<time>2018-07-07T03:59:20.815Z</time>
</trkpt>
<trkpt lat="22.2709173" lon="114.2328806">
<ele>116.337</ele>
<time>2018-07-07T03:59:32.998Z</time>
</trkpt>
<trkpt lat="22.2709173" lon="114.2328806">
<ele>113.433</ele>
<time>2018-07-07T03:59:35.998Z</time>
</trkpt>
<trkpt lat="22.2709173" lon="114.2328806">
<ele>111.910</ele>
<time>2018-07-07T03:59:36.098Z</time>
</trkpt>
<trkpt lat="22.2708504" lon="114.2329726">
<ele>112.724</ele>
<time>2018-07-07T03:59:46.714Z</time>
</trkpt>
<trkpt lat="22.2709352" lon="114.2330129">
<ele>112.567</ele>
<time>2018-07-07T03:59:51.715Z</time>
</trkpt>
<trkpt lat="22.2709402" lon="114.2331127">
<ele>109.014</ele>
<time>2018-07-07T03:59:55.999Z</time>
</trkpt>
<trkpt lat="22.2709402" lon="114.2331127">
<ele>107.861</ele>
<time>2018-07-07T04:00:01.999Z</time>
</trkpt>
<trkpt lat="22.2709402" lon="114.2331127">
<ele>107.672</ele>
<time>2018-07-07T04:00:02.099Z</time>
</trkpt>
<trkpt lat="22.2710712" lon="114.2331949">
<ele>107.812</ele>
<time>2018-07-07T04:00:15.795Z</time>
</trkpt>
<trkpt lat="22.2711631" lon="114.2332186">
<ele>107.349</ele>
<time>2018-07-07T04:00:20.142Z</time>
</trkpt>
<trkpt lat="22.2712145" lon="114.2331232">
<ele>106.083</ele>
<time>2018-07-07T04:00:24.414Z</time>
</trkpt>
<trkpt lat="22.2712752" lon="114.2330498">
<ele>104.666</ele>
<time>2018-07-07T04:00:27.998Z</time>
</trkpt>
<trkpt lat="22.2712752" lon="114.2330498">
<ele>103.762</ele>
<time>2018-07-07T04:00:33.998Z</time>
</trkpt>
<trkpt lat="22.2712752" lon="114.2330498">
<ele>103.403</ele>
<time>2018-07-07T04:00:34.098Z</time>
</trkpt>
<trkpt lat="22.2713946" lon="114.2329871">
<ele>103.415</ele>
<time>2018-07-07T04:00:47.130Z</time>
</trkpt>
<trkpt lat="22.2714953" lon="114.2329654">
<ele>103.216</ele>
<time>2018-07-07T04:00:56.581Z</time>
</trkpt>
<trkpt lat="22.2715905" lon="114.2329763">
<ele>102.437</ele>
<time>2018-07-07T04:01:06.343Z</time>
</trkpt>
<trkpt lat="22.2716840" lon="114.2329576">
<ele>101.362</ele>
<time>2018-07-07T04:01:14.123Z</time>
</trkpt>
<trkpt lat="22.2717730" lon="114.2329287">
<ele>100.353</ele>
<time>2018-07-07T04:01:18.796Z</time>
</trkpt>
<trkpt lat="22.2718626" lon="114.2329017">
<ele>99.414</ele>
<time>2018-07-07T04:01:23.145Z</time>
</trkpt>
<trkpt lat="22.2719671" lon="114.2328898">
<ele>98.504</ele>
<time>2018-07-07T04:01:28.115Z</time>
</trkpt>
<trkpt lat="22.2720466" lon="114.2328363">
<ele>97.710</ele>
<time>2018-07-07T04:01:32.655Z</time>
</trkpt>
<trkpt lat="22.2721470" lon="114.2328006">
<ele>97.127</ele>
<time>2018-07-07T04:01:37.818Z</time>
</trkpt>
<trkpt lat="22.2722326" lon="114.2327695">
<ele>96.616</ele>
<time>2018-07-07T04:01:42.256Z</time>
</trkpt>
<trkpt lat="22.2723183" lon="114.2327253">
<ele>95.980</ele>
<time>2018-07-07T04:01:46.996Z</time>
</trkpt>
<trkpt lat="22.2723183" lon="114.2327253">
<ele>95.274</ele>
<time>2018-07-07T04:01:49.996Z</time>
</trkpt>
</trkseg>
</trk>
<extensions>
<fpdata xmlns="http://www.motionx.com/GPX-Extensions/1/1" sfv="10" origin="MotionXGPSFull 24.4 Build 5112 R64">
<bin enc="base64">
RgIAAAACAAAAMA9kNgPQ1kEBAAAAVtll0g7Q1kE1XnrzNmm1QPECAAAIZQgArF4fpNRy
LUA4HiGQjdFXQAAAAAAXAAAAQ2FybHRvbiBIaWtlIOWwh+i7jeefswAVAAAASnVsIDcs
IDIwMTggIDg6NDQgYW0AAAAAAIDZZdIO0NZBmDWm1w7Q1kHFvncAY3dGgrUXWUAsAAAA
AQAAAD0dxjsmjlxA0Raw7QNINkCsXh+k1HItQAAAAAAAAD5AAAAAAAAAGEAAAAAAAFB0
QAAAAAAAAAAAAAAAAB+F61G43m5AguCDgo3JX0ABAAAAm5I+MhL7hr8BAAAAAQAAAJ/j
JJyFGsI/et8w3Liesb8BAAAAAQAAAAMAAADSfnboq2dGQAAAAAAAAAAAAAAAAAAAAAAA
AAAAAAAAAAAAAAAAAAAAAAAAAAAAAABmJgAAust/yw7Q1kEAAAAAAAAAAAAAAAAAAAAA
/yVEvAIAAAAAAAAAAAAAAAEAAAAnAAAAMjQuMiBCdWlsZCA1MDYzUjY0LCBNWEFFIDgu
MSBiLiA2MjZSNjQAAAAAAENmAAABAAAAAXsAAADZDEBbLjtAWwS+D8Q3A9DWQb4PxDcD
0NZBAAAAcAkAFkAAAAAAA5fidTgD0NZBl+J1OAPQ1kEAAAB8m44gQAAAAAAE6NbJPAPQ
1kHo1sk8A9DWQQAAADYflzlAAAAAAAP8GvhBA9DWQfwa+EED0NZBAAAAyxcoR0AAAAAA
BA1SiUYD0NZBDVKJRgPQ1kEAAIALQyVQQAAAAAADghw1SQPQ1kGCHDVJA9DWQQAAgGsN
0VJAAAAAAASYpsdrA9DWQZimx2sD0NZBAABAvsuxakAAAAAAAjwPZDYD0NZB2pL4cgPQ
1kEAAADPQUpuQAAAAAADMnJ5fQPQ1kEycnl9A9DWQQAAgEDr8m9AAAAAAAQK+IeWA9DW
QQr4h5YD0NZBAAAgGBc9dkAAAAAAAnUfKHoD0NZBaoq3YQTQ1kEAADDpPkKSQAAAAAAC
CvELYwTQ1kGsqndnBNDWQQAAUIP6iJJAAAAAAALlJ8xyBNDWQTBLB6gE0NZBAAAAuKzc
lUAAAAAAAnjxycAE0NZB3nEL1QTQ1kEAAGC+xCCXQAAAAAACoNvMRQXQ1kGmSPJUBdDW
QQAAwI4bE5hAAAAAAAISGMtdBdDWQaZiyHYF0NZBAAAAOPCimUAAAAAAAornDJEF0NZB
8YAJkgXQ1kEAAHDOubKZQAAAAAACZi3OzwXQ1kHO48fQBdDWQQAA8DRVwplAAAAAAAIh
PArTBdDWQcwjduwF0NZBAACgrxNZm0AAAAAAApz8jv0F0NZBqN3FCgbQ1kEAAGDAgSyc
QAAAAAACr3qIDQbQ1kEABTcPBtDWQQAAcGVqR5xAAAAAAAKWKI0kBtDWQVR1xjcG0NZB
AABQMf96nUAAAAAAAtaPyUUG0NZBYt21cgbQ1kEAAAgF4iSgQAAAAAACkpjOdwbQ1kEf
oEx4BtDWQQAAcEHSKKBAAAAAAAK3Q4l/BtDWQXbG84IG0NZBAABoVyZEoEAAAAAAAkaz
jZIG0NZBl6n0rAbQ1kEAAPAJXhehQAAAAAACyuIJrwbQ1kGak8i/BtDWQQAAcJBTnaFA
AAAAAAKgv4nBBtDWQd7nsNMG0NZBAABg0owuokAAAAAAAvKVyNcG0NZBE9N14AbQ1kEA
AGi79nOiQAAAAAACgPVJ5AbQ1kGWWLDuBtDWQQAAGNQpx6JAAAAAAAIaMUryBtDWQbVS
hvUG0NZBAADw4ArhokAAAAAAArDESPcG0NZBqBdxAQfQ1kEAALB4TTKjQAAAAAACBDdJ
BgfQ1kFb0TYPB9DWQQAAaEu6eaNAAAAAAAKPi0tIB9DWQT499VIH0NZBAADg2AfPo0AA
AAAAAvzjDF0H0NZBcD4kXQfQ1kEAAICsws+jQAAAAAACQFPIXgfQ1kG7KceOB9DWQQAA
WGC5T6VAAAAAAALyfYmSB9DWQUYFiZ0H0NZBAAD4mrWnpUAAAAAAAuIjSp8H0NZBENBy
tQfQ1kEAAGj8+limQAAAAAACmOEJuwfQ1kGWAgjPB9DWQQAAWATs+KZAAAAAAAKS5snZ
B9DWQef9StoH0NZBAAAAv/T8pkAAAAAAAjRJzOgH0NZBIXWH6gfQ1kEAAGgezgqnQAAA
AAACMPhI7AfQ1kE4gXDuB9DWQQAAqGYKHKdAAAAAAAIWUI0QCNDWQR3LSRII0NZBAADg
Pu4pp0AAAAAAAm7hiBwI0NZBoaCwLAjQ1kEAAHg4LKunQAAAAAACEOkLNwjQ1kG/RYc6
CNDWQQAA8B0Hx6dAAAAAAAJjKUw8CNDWQYLFMT4I0NZBAADo/jPWp0AAAAAAArJLDUcI
0NZBsKezSwjQ1kEAANjeZvunQAAAAAAC/HHMpwjQ1kGU2zSpCNDWQQAAmCuqBqhAAAAA
AAKeKA+rCNDWQccrs60I0NZBAADgRMobqEAAAAAAAgOVScEI0NZB848IwwjQ1kEAAGAc
wimoQAAAAAACILTR0gjQ1kGNDK/aCNDWQQAAyN+saKhAAAAAAAKk/tNVCdDWQU8gB1sJ
0NZBAAAg7UWSqEAAAAAAAiSzy6YJ0NZB2ZdypwnQ1kEAAMgSfZeoQAAAAAACSS5NuwnQ
1kFKK3S9CdDWQQAA0Pq0qKhAAAAAAAJJ9krBCdDWQdmVCMIJ0NZBAABQ96GuqEAAAAAA
AjRpysQJ0NZBEhJ0yAnQ1kEAAEA+78uoQAAAAAACBTUMGwrQ1kF8EckdCtDWQQAA+CHW
4ahAAAAAAAL45Ao2CtDWQaa0hTkK0NZBAABon6z9qEAAAAAAAhR1TkgK0NZBgLtuSArQ
1kEAAMjSrv6oQAAAAAAC0JUJTArQ1kHNde1MCtDWQQAAsNLNBalAAAAAAAKsGgp1CtDW
Qfqb8HcK0NZBAAAg3QEdqUAAAAAAAvRPSYMK0NZBMBPyhQrQ1kEAAAD3RzKpQAAAAAAC
XHjNjwrQ1kGAnciSCtDWQQAAICAhSqlAAAAAAAKwNYmVCtDWQQ1vb5YK0NZBAAAI61JR
qUAAAAAAAkYKSpwK0NZB6BPjnwrQ1kEAABg4G26pQAAAAAACngUOqArQ1kFHynOqCtDW
QQAAYF1JgalAAAAAAAIa3keyCtDWQagAY7cK0NZBAADQcSKqqUAAAAAAAthIz8EK0NZB
OPczxwrQ1kEAANDkR9WpQAAAAAACbJbKywrQ1kEA/0fRCtDWQQAAcCkzAapAAAAAAAIG
g43zCtDWQeYHbg8L0NZBAABwUDfgqkAAAAAAApzDihcL0NZBttcHHQvQ1kEAAEDxHwyr
QAAAAAACkG1MIAvQ1kETDMg7C9DWQQAAWOX856tAAAAAAALs/AtHC9DWQd7IBksL0NZB
AADoRNMHrEAAAAAAAvAWDWIL0NZBibWHbAvQ1kEAALA5qFusQAAAAAACgPEJdwvQ1kHy
BEl9C9DWQQAAQNWgjaxAAAAAAALEmQ2KC9DWQZqSSJwL0NZBAADwm3gfrUAAAAAAAsL5
z+oL0NZBRbpw7QvQ1kEAAAigfjStQAAAAAACdlQO/AvQ1kEyVgn9C9DWQQAA6K1WPK1A
AAAAAAJK8swCDNDWQWqiBw8M0NZBAADoLiyerUAAAAAAAjgqyRAM0NZBdCttGQzQ1kEA
AMg4TOOtQAAAAAACXKrKHwzQ1kGkhzA5DNDWQQAACCN7rq5AAAAAAAKmJM5eDNDWQQzK
SJIM0NZBAAAcJyglsEAAAAAAAt1DSpgM0NZB8iVJtgzQ1kEAAHCvI52wQAAAAAACVihJ
uQzQ1kFQT6y7DNDWQQAAWEuwprBAAAAAAAL/zAvBDNDWQRJPsMEM0NZBAACkU0KpsEAA
AAAAAgIvycYM0NZB6CwG0AzQ1kEAADxLNs6wQAAAAAACxAdP0wzQ1kFmTobWDNDWQQAA
xGUT27BAAAAAAALK4criDNDWQeYIa+UM0NZBAAA0ApTlsEAAAAAAAkq2COoM0NZBW3pG
6gzQ1kEAAHgSi+awQAAAAAACxjFJ6gzQ1kEKMAjrDNDWQQAAiAuH6bBAAAAAAAJ4Q0ry
DNDWQT6vhwEN0NZBAACgunwmsUAAAAAAAjb/SQQN0NZBErqrBQ3Q1kEAABCmAyyxQAAA
AAAC+1uKEw3Q1kFrgHAVDdDWQQAA0DecM7FAAAAAAAJES4gaDdDWQdDziB4N0NZBAAAA
2p5DsUAAAAAAAnS4iSAN0NZBIGPwMw3Q1kEAALCEOZGxQAAAAAACbObLPQ3Q1kFSRYlU
DdDWQQAASAAv7LFAAAAAAAK2TYlWDdDWQRR5R1oN0NZBAADArSf7sUAAAAAAAk6a04sN
0NZB862Gjw3Q1kEAAFT88wmyQAAAAAAClgZJmQ3Q1kGQELCZDdDWQQAAPCSQC7JAAAAA
AAICg8uZDdDWQSwpSJoN0NZBAADkvIINskAAAAAAAvwWiZsN0NZBKqYIpw3Q1kEAAJz5
gDuyQAAAAAACxsOKtQ3Q1kF8JIe/DdDWQQAAdHxyY7JAAAAAAAIyA1/CDdDWQUbPCMgN
0NZBAADErBl6skAAAAAAAs8vSs4N0NZBBihIzw3Q1kEAAKCNEX6yQAAAAAACQNgK0Q3Q
1kE1tkfSDdDWQQAAdAUFg7JAAAAAAAPcma7SDdDWQdyZrtIN0NZBAAB0BQWDskAAAAAA
BM1aCNYN0NZBzVoI1g3Q1kEAAHQFBYOyQAAAAAAD4Xwt/w3Q1kHhfC3/DdDWQTVehNB/
MbNAAAAAAATilQcCDtDWQeKVBwIO0NZBNV7aNOg8s0AAAAAAAqTcCdYN0NZBxnDIDw7Q
1kE1Xraf63OzQAAAAAACFhhnEQ7Q1kHGpogrDtDWQTVedtpx3LNAAAAAAAKj5souDtDW
QT/F6jAO0NZBNV7mVPHks0AAAAAAAtpUzT0O0NZBlliIRA7Q1kE1XtZj3f+zQAAAAAAC
j4oQTw7Q1kHrU25TDtDWQTVeRolUEbRAAAAAAAIpPw1aDtDWQQosMHUO0NZBNV7KPOB9
tEAAAAAAAihJiHcO0NZBaJdthg7Q1kE1Xsp1dbm0QAAAAAACzxTKig7Q1kFEoYePDtDW
QTVenqdrzLRAAAAAAALMtYqaDtDWQWhd75oO0NZBNV4ORv7NtEAAAAAAAhBWC5sO0NZB
xm+Kmw7Q1kE1Xuas+s+0QAAAAAAC8iBKoA7Q1kF0lUiqDtDWQTVe7n7097RAAAAAAAL0
U8mrDtDWQeHR1bAO0NZBNV6idiYMtUAAAAAAAsiXirIO0NZBlj+puA7Q1kE1XtoVoSS1
QAAAAAACkEuKug7Q1kH4wq/LDtDWQTVeevM2abVAAAAAAAAAAAA=
</bin>
</fpdata>
</extensions>
</gpx>
